<?xml version="1.0" encoding="UTF-8" standalone="no" ?>
<gpx xmlns="http://www.topografix.com/GPX/1/1" xmlns:xsi="http://www.w3.org/2001/XMLSchema-instance" xsi:schemaLocation="http://www.topografix.com/GPX/1/1 http://www.topografix.com/GPX/1/1/gpx.xsd" version="1.1" creator="VisuGPX - https://www.visugpx.com">
  <metadata>
    <name>Loisirs &amp;amp; Découvertes à Celles 24600 (4)</name>
    <desc><![CDATA[Promenade autour de notre commune. Accessible à tous]]></desc>
  </metadata>
  <trk>
    <name><![CDATA[Tracé 24 févr. 2016 14:01:25 Celles]]></name>
    <trkseg>
      <trkpt lat="45.29504" lon="0.41066">
        <ele>86</ele>
        <time>2016-02-24T13:01:25Z</time>
      </trkpt>
      <trkpt lat="45.29502" lon="0.41071">
        <ele>83</ele>
        <time>2016-02-24T13:02:37Z</time>
      </trkpt>
      <trkpt lat="45.29503" lon="0.41075">
        <ele>86</ele>
        <time>2016-02-24T13:02:41Z</time>
      </trkpt>
      <trkpt lat="45.295" lon="0.41079">
        <ele>89</ele>
        <time>2016-02-24T13:02:47Z</time>
      </trkpt>
      <trkpt lat="45.29498" lon="0.41085">
        <ele>91</ele>
        <time>2016-02-24T13:02:55Z</time>
      </trkpt>
      <trkpt lat="45.29495" lon="0.41088">
        <ele>91</ele>
        <time>2016-02-24T13:03:01Z</time>
      </trkpt>
      <trkpt lat="45.29494" lon="0.41093">
        <ele>92</ele>
        <time>2016-02-24T13:03:08Z</time>
      </trkpt>
      <trkpt lat="45.29492" lon="0.41098">
        <ele>92</ele>
        <time>2016-02-24T13:03:16Z</time>
      </trkpt>
      <trkpt lat="45.29489" lon="0.41097">
        <ele>96</ele>
        <time>2016-02-24T13:03:21Z</time>
      </trkpt>
      <trkpt lat="45.29482" lon="0.41099">
        <ele>95</ele>
        <time>2016-02-24T13:03:25Z</time>
      </trkpt>
      <trkpt lat="45.29478" lon="0.41098">
        <ele>93</ele>
        <time>2016-02-24T13:03:30Z</time>
      </trkpt>
      <trkpt lat="45.29474" lon="0.41096">
        <ele>90</ele>
        <time>2016-02-24T13:03:35Z</time>
      </trkpt>
      <trkpt lat="45.29471" lon="0.41093">
        <ele>89</ele>
        <time>2016-02-24T13:03:39Z</time>
      </trkpt>
      <trkpt lat="45.29467" lon="0.41091">
        <ele>89</ele>
        <time>2016-02-24T13:03:43Z</time>
      </trkpt>
      <trkpt lat="45.29463" lon="0.41086">
        <ele>87</ele>
        <time>2016-02-24T13:03:48Z</time>
      </trkpt>
      <trkpt lat="45.29459" lon="0.41082">
        <ele>87</ele>
        <time>2016-02-24T13:03:52Z</time>
      </trkpt>
      <trkpt lat="45.29455" lon="0.4108">
        <ele>87</ele>
        <time>2016-02-24T13:03:56Z</time>
      </trkpt>
      <trkpt lat="45.29451" lon="0.41078">
        <ele>85</ele>
        <time>2016-02-24T13:04:01Z</time>
      </trkpt>
      <trkpt lat="45.29448" lon="0.41076">
        <ele>85</ele>
        <time>2016-02-24T13:04:05Z</time>
      </trkpt>
      <trkpt lat="45.29443" lon="0.41074">
        <ele>82</ele>
        <time>2016-02-24T13:04:09Z</time>
      </trkpt>
      <trkpt lat="45.29439" lon="0.4107">
        <ele>82</ele>
        <time>2016-02-24T13:04:14Z</time>
      </trkpt>
      <trkpt lat="45.29434" lon="0.41067">
        <ele>82</ele>
        <time>2016-02-24T13:04:18Z</time>
      </trkpt>
      <trkpt lat="45.29428" lon="0.41063">
        <ele>84</ele>
        <time>2016-02-24T13:04:23Z</time>
      </trkpt>
      <trkpt lat="45.29424" lon="0.41059">
        <ele>83</ele>
        <time>2016-02-24T13:04:27Z</time>
      </trkpt>
      <trkpt lat="45.29418" lon="0.41056">
        <ele>83</ele>
        <time>2016-02-24T13:04:31Z</time>
      </trkpt>
      <trkpt lat="45.29413" lon="0.41053">
        <ele>81</ele>
        <time>2016-02-24T13:04:36Z</time>
      </trkpt>
      <trkpt lat="45.29409" lon="0.4105">
        <ele>82</ele>
        <time>2016-02-24T13:04:40Z</time>
      </trkpt>
      <trkpt lat="45.29406" lon="0.41047">
        <ele>83</ele>
        <time>2016-02-24T13:04:44Z</time>
      </trkpt>
      <trkpt lat="45.29401" lon="0.41044">
        <ele>83</ele>
        <time>2016-02-24T13:04:48Z</time>
      </trkpt>
      <trkpt lat="45.29396" lon="0.41043">
        <ele>83</ele>
        <time>2016-02-24T13:04:53Z</time>
      </trkpt>
      <trkpt lat="45.2939" lon="0.41042">
        <ele>83</ele>
        <time>2016-02-24T13:04:58Z</time>
      </trkpt>
      <trkpt lat="45.29385" lon="0.41043">
        <ele>83</ele>
        <time>2016-02-24T13:05:02Z</time>
      </trkpt>
      <trkpt lat="45.29377" lon="0.41039">
        <ele>83</ele>
        <time>2016-02-24T13:05:07Z</time>
      </trkpt>
      <trkpt lat="45.29373" lon="0.41042">
        <ele>84</ele>
        <time>2016-02-24T13:05:12Z</time>
      </trkpt>
      <trkpt lat="45.29365" lon="0.41046">
        <ele>83</ele>
        <time>2016-02-24T13:05:16Z</time>
      </trkpt>
      <trkpt lat="45.29366" lon="0.41055">
        <ele>81</ele>
        <time>2016-02-24T13:05:20Z</time>
      </trkpt>
      <trkpt lat="45.29361" lon="0.41058">
        <ele>83</ele>
        <time>2016-02-24T13:05:25Z</time>
      </trkpt>
      <trkpt lat="45.29356" lon="0.41054">
        <ele>85</ele>
        <time>2016-02-24T13:05:30Z</time>
      </trkpt>
      <trkpt lat="45.29351" lon="0.4105">
        <ele>85</ele>
        <time>2016-02-24T13:05:34Z</time>
      </trkpt>
      <trkpt lat="45.29344" lon="0.41048">
        <ele>82</ele>
        <time>2016-02-24T13:05:39Z</time>
      </trkpt>
      <trkpt lat="45.29343" lon="0.41042">
        <ele>84</ele>
        <time>2016-02-24T13:05:44Z</time>
      </trkpt>
      <trkpt lat="45.29333" lon="0.41039">
        <ele>83</ele>
        <time>2016-02-24T13:05:48Z</time>
      </trkpt>
      <trkpt lat="45.29328" lon="0.41035">
        <ele>81</ele>
        <time>2016-02-24T13:05:53Z</time>
      </trkpt>
      <trkpt lat="45.29323" lon="0.41032">
        <ele>83</ele>
        <time>2016-02-24T13:05:57Z</time>
      </trkpt>
      <trkpt lat="45.29317" lon="0.41029">
        <ele>83</ele>
        <time>2016-02-24T13:06:01Z</time>
      </trkpt>
      <trkpt lat="45.29312" lon="0.41026">
        <ele>83</ele>
        <time>2016-02-24T13:06:06Z</time>
      </trkpt>
      <trkpt lat="45.29308" lon="0.41023">
        <ele>81</ele>
        <time>2016-02-24T13:06:11Z</time>
      </trkpt>
      <trkpt lat="45.29305" lon="0.41018">
        <ele>84</ele>
        <time>2016-02-24T13:06:16Z</time>
      </trkpt>
      <trkpt lat="45.29299" lon="0.41015">
        <ele>84</ele>
        <time>2016-02-24T13:06:21Z</time>
      </trkpt>
      <trkpt lat="45.29296" lon="0.4101">
        <ele>83</ele>
        <time>2016-02-24T13:06:25Z</time>
      </trkpt>
      <trkpt lat="45.29291" lon="0.41007">
        <ele>82</ele>
        <time>2016-02-24T13:06:30Z</time>
      </trkpt>
      <trkpt lat="45.29285" lon="0.41002">
        <ele>83</ele>
        <time>2016-02-24T13:06:35Z</time>
      </trkpt>
      <trkpt lat="45.29282" lon="0.40998">
        <ele>85</ele>
        <time>2016-02-24T13:06:42Z</time>
      </trkpt>
      <trkpt lat="45.29278" lon="0.40992">
        <ele>86</ele>
        <time>2016-02-24T13:06:47Z</time>
      </trkpt>
      <trkpt lat="45.29275" lon="0.40987">
        <ele>84</ele>
        <time>2016-02-24T13:06:51Z</time>
      </trkpt>
      <trkpt lat="45.2927" lon="0.40982">
        <ele>83</ele>
        <time>2016-02-24T13:06:56Z</time>
      </trkpt>
      <trkpt lat="45.29265" lon="0.40976">
        <ele>83</ele>
        <time>2016-02-24T13:07:01Z</time>
      </trkpt>
      <trkpt lat="45.29263" lon="0.40971">
        <ele>81</ele>
        <time>2016-02-24T13:07:12Z</time>
      </trkpt>
      <trkpt lat="45.29258" lon="0.40965">
        <ele>81</ele>
        <time>2016-02-24T13:07:17Z</time>
      </trkpt>
      <trkpt lat="45.29254" lon="0.40959">
        <ele>82</ele>
        <time>2016-02-24T13:07:21Z</time>
      </trkpt>
      <trkpt lat="45.29251" lon="0.40956">
        <ele>82</ele>
        <time>2016-02-24T13:07:26Z</time>
      </trkpt>
      <trkpt lat="45.29247" lon="0.40955">
        <ele>85</ele>
        <time>2016-02-24T13:07:32Z</time>
      </trkpt>
      <trkpt lat="45.29244" lon="0.40952">
        <ele>85</ele>
        <time>2016-02-24T13:07:39Z</time>
      </trkpt>
      <trkpt lat="45.29239" lon="0.40952">
        <ele>85</ele>
        <time>2016-02-24T13:07:46Z</time>
      </trkpt>
      <trkpt lat="45.29234" lon="0.40955">
        <ele>84</ele>
        <time>2016-02-24T13:07:51Z</time>
      </trkpt>
      <trkpt lat="45.2923" lon="0.40955">
        <ele>83</ele>
        <time>2016-02-24T13:07:56Z</time>
      </trkpt>
      <trkpt lat="45.29225" lon="0.40957">
        <ele>83</ele>
        <time>2016-02-24T13:08:00Z</time>
      </trkpt>
      <trkpt lat="45.29218" lon="0.40958">
        <ele>83</ele>
        <time>2016-02-24T13:08:04Z</time>
      </trkpt>
      <trkpt lat="45.29213" lon="0.40959">
        <ele>84</ele>
        <time>2016-02-24T13:08:09Z</time>
      </trkpt>
      <trkpt lat="45.29207" lon="0.40959">
        <ele>82</ele>
        <time>2016-02-24T13:08:13Z</time>
      </trkpt>
      <trkpt lat="45.29204" lon="0.40958">
        <ele>86</ele>
        <time>2016-02-24T13:08:18Z</time>
      </trkpt>
      <trkpt lat="45.29199" lon="0.40955">
        <ele>87</ele>
        <time>2016-02-24T13:08:22Z</time>
      </trkpt>
      <trkpt lat="45.29198" lon="0.40945">
        <ele>88</ele>
        <time>2016-02-24T13:08:27Z</time>
      </trkpt>
      <trkpt lat="45.29194" lon="0.40943">
        <ele>88</ele>
        <time>2016-02-24T13:08:31Z</time>
      </trkpt>
      <trkpt lat="45.2919" lon="0.40941">
        <ele>90</ele>
        <time>2016-02-24T13:08:36Z</time>
      </trkpt>
      <trkpt lat="45.29183" lon="0.4094">
        <ele>90</ele>
        <time>2016-02-24T13:08:40Z</time>
      </trkpt>
      <trkpt lat="45.29178" lon="0.40933">
        <ele>92</ele>
        <time>2016-02-24T13:08:44Z</time>
      </trkpt>
      <trkpt lat="45.29175" lon="0.40928">
        <ele>94</ele>
        <time>2016-02-24T13:08:48Z</time>
      </trkpt>
      <trkpt lat="45.2917" lon="0.40923">
        <ele>93</ele>
        <time>2016-02-24T13:08:53Z</time>
      </trkpt>
      <trkpt lat="45.29167" lon="0.40919">
        <ele>90</ele>
        <time>2016-02-24T13:09:00Z</time>
      </trkpt>
      <trkpt lat="45.29161" lon="0.40915">
        <ele>90</ele>
        <time>2016-02-24T13:09:05Z</time>
      </trkpt>
      <trkpt lat="45.29157" lon="0.40911">
        <ele>87</ele>
        <time>2016-02-24T13:09:09Z</time>
      </trkpt>
      <trkpt lat="45.2915" lon="0.40909">
        <ele>86</ele>
        <time>2016-02-24T13:09:14Z</time>
      </trkpt>
      <trkpt lat="45.29147" lon="0.40906">
        <ele>88</ele>
        <time>2016-02-24T13:09:19Z</time>
      </trkpt>
      <trkpt lat="45.29144" lon="0.40903">
        <ele>88</ele>
        <time>2016-02-24T13:09:23Z</time>
      </trkpt>
      <trkpt lat="45.29143" lon="0.40897">
        <ele>88</ele>
        <time>2016-02-24T13:09:29Z</time>
      </trkpt>
      <trkpt lat="45.29139" lon="0.40891">
        <ele>89</ele>
        <time>2016-02-24T13:09:33Z</time>
      </trkpt>
      <trkpt lat="45.29135" lon="0.4089">
        <ele>87</ele>
        <time>2016-02-24T13:09:37Z</time>
      </trkpt>
      <trkpt lat="45.29131" lon="0.40886">
        <ele>90</ele>
        <time>2016-02-24T13:09:42Z</time>
      </trkpt>
      <trkpt lat="45.29128" lon="0.40882">
        <ele>90</ele>
        <time>2016-02-24T13:09:47Z</time>
      </trkpt>
      <trkpt lat="45.29124" lon="0.40878">
        <ele>91</ele>
        <time>2016-02-24T13:09:51Z</time>
      </trkpt>
      <trkpt lat="45.29119" lon="0.40873">
        <ele>91</ele>
        <time>2016-02-24T13:09:56Z</time>
      </trkpt>
      <trkpt lat="45.29114" lon="0.40868">
        <ele>91</ele>
        <time>2016-02-24T13:10:00Z</time>
      </trkpt>
      <trkpt lat="45.2911" lon="0.40869">
        <ele>93</ele>
        <time>2016-02-24T13:10:06Z</time>
      </trkpt>
      <trkpt lat="45.29105" lon="0.40863">
        <ele>93</ele>
        <time>2016-02-24T13:10:10Z</time>
      </trkpt>
      <trkpt lat="45.29102" lon="0.4086">
        <ele>91</ele>
        <time>2016-02-24T13:10:14Z</time>
      </trkpt>
      <trkpt lat="45.29096" lon="0.40856">
        <ele>92</ele>
        <time>2016-02-24T13:10:18Z</time>
      </trkpt>
      <trkpt lat="45.29091" lon="0.40854">
        <ele>90</ele>
        <time>2016-02-24T13:10:22Z</time>
      </trkpt>
      <trkpt lat="45.29085" lon="0.40852">
        <ele>91</ele>
        <time>2016-02-24T13:10:26Z</time>
      </trkpt>
      <trkpt lat="45.29081" lon="0.40848">
        <ele>92</ele>
        <time>2016-02-24T13:10:30Z</time>
      </trkpt>
      <trkpt lat="45.29077" lon="0.40845">
        <ele>91</ele>
        <time>2016-02-24T13:10:34Z</time>
      </trkpt>
      <trkpt lat="45.29071" lon="0.40841">
        <ele>91</ele>
        <time>2016-02-24T13:10:39Z</time>
      </trkpt>
      <trkpt lat="45.29066" lon="0.40836">
        <ele>89</ele>
        <time>2016-02-24T13:10:44Z</time>
      </trkpt>
      <trkpt lat="45.29062" lon="0.40832">
        <ele>89</ele>
        <time>2016-02-24T13:10:49Z</time>
      </trkpt>
      <trkpt lat="45.29056" lon="0.4083">
        <ele>88</ele>
        <time>2016-02-24T13:10:54Z</time>
      </trkpt>
      <trkpt lat="45.29051" lon="0.40827">
        <ele>87</ele>
        <time>2016-02-24T13:10:59Z</time>
      </trkpt>
      <trkpt lat="45.29045" lon="0.40822">
        <ele>88</ele>
        <time>2016-02-24T13:11:04Z</time>
      </trkpt>
      <trkpt lat="45.2904" lon="0.40819">
        <ele>89</ele>
        <time>2016-02-24T13:11:08Z</time>
      </trkpt>
      <trkpt lat="45.29035" lon="0.40819">
        <ele>88</ele>
        <time>2016-02-24T13:11:12Z</time>
      </trkpt>
      <trkpt lat="45.29029" lon="0.40813">
        <ele>88</ele>
        <time>2016-02-24T13:11:17Z</time>
      </trkpt>
      <trkpt lat="45.29024" lon="0.40812">
        <ele>89</ele>
        <time>2016-02-24T13:11:21Z</time>
      </trkpt>
      <trkpt lat="45.29019" lon="0.40808">
        <ele>91</ele>
        <time>2016-02-24T13:11:26Z</time>
      </trkpt>
      <trkpt lat="45.29015" lon="0.40803">
        <ele>91</ele>
        <time>2016-02-24T13:11:30Z</time>
      </trkpt>
      <trkpt lat="45.2901" lon="0.40797">
        <ele>89</ele>
        <time>2016-02-24T13:11:35Z</time>
      </trkpt>
      <trkpt lat="45.29005" lon="0.40791">
        <ele>88</ele>
        <time>2016-02-24T13:11:40Z</time>
      </trkpt>
      <trkpt lat="45.29001" lon="0.40787">
        <ele>89</ele>
        <time>2016-02-24T13:11:44Z</time>
      </trkpt>
      <trkpt lat="45.28998" lon="0.40782">
        <ele>89</ele>
        <time>2016-02-24T13:11:49Z</time>
      </trkpt>
      <trkpt lat="45.28993" lon="0.40778">
        <ele>89</ele>
        <time>2016-02-24T13:11:54Z</time>
      </trkpt>
      <trkpt lat="45.28989" lon="0.40774">
        <ele>90</ele>
        <time>2016-02-24T13:11:58Z</time>
      </trkpt>
      <trkpt lat="45.28984" lon="0.4077">
        <ele>92</ele>
        <time>2016-02-24T13:12:03Z</time>
      </trkpt>
      <trkpt lat="45.2898" lon="0.40766">
        <ele>94</ele>
        <time>2016-02-24T13:12:07Z</time>
      </trkpt>
      <trkpt lat="45.28976" lon="0.40761">
        <ele>95</ele>
        <time>2016-02-24T13:12:11Z</time>
      </trkpt>
      <trkpt lat="45.28973" lon="0.40756">
        <ele>96</ele>
        <time>2016-02-24T13:12:15Z</time>
      </trkpt>
      <trkpt lat="45.28967" lon="0.4075">
        <ele>92</ele>
        <time>2016-02-24T13:12:20Z</time>
      </trkpt>
      <trkpt lat="45.28964" lon="0.40744">
        <ele>89</ele>
        <time>2016-02-24T13:12:25Z</time>
      </trkpt>
      <trkpt lat="45.28957" lon="0.40748">
        <ele>89</ele>
        <time>2016-02-24T13:12:29Z</time>
      </trkpt>
      <trkpt lat="45.2895" lon="0.40747">
        <ele>88</ele>
        <time>2016-02-24T13:12:33Z</time>
      </trkpt>
      <trkpt lat="45.28945" lon="0.40745">
        <ele>88</ele>
        <time>2016-02-24T13:12:38Z</time>
      </trkpt>
      <trkpt lat="45.28939" lon="0.40744">
        <ele>86</ele>
        <time>2016-02-24T13:12:42Z</time>
      </trkpt>
      <trkpt lat="45.28934" lon="0.40741">
        <ele>85</ele>
        <time>2016-02-24T13:12:47Z</time>
      </trkpt>
      <trkpt lat="45.28928" lon="0.40739">
        <ele>84</ele>
        <time>2016-02-24T13:12:51Z</time>
      </trkpt>
      <trkpt lat="45.28924" lon="0.40738">
        <ele>84</ele>
        <time>2016-02-24T13:12:55Z</time>
      </trkpt>
      <trkpt lat="45.2892" lon="0.40735">
        <ele>84</ele>
        <time>2016-02-24T13:12:59Z</time>
      </trkpt>
      <trkpt lat="45.28916" lon="0.40732">
        <ele>83</ele>
        <time>2016-02-24T13:13:03Z</time>
      </trkpt>
      <trkpt lat="45.2891" lon="0.40729">
        <ele>83</ele>
        <time>2016-02-24T13:13:07Z</time>
      </trkpt>
      <trkpt lat="45.28904" lon="0.40727">
        <ele>83</ele>
        <time>2016-02-24T13:13:11Z</time>
      </trkpt>
      <trkpt lat="45.289" lon="0.40724">
        <ele>83</ele>
        <time>2016-02-24T13:13:15Z</time>
      </trkpt>
      <trkpt lat="45.28894" lon="0.4072">
        <ele>84</ele>
        <time>2016-02-24T13:13:20Z</time>
      </trkpt>
      <trkpt lat="45.28889" lon="0.40718">
        <ele>84</ele>
        <time>2016-02-24T13:13:25Z</time>
      </trkpt>
      <trkpt lat="45.28884" lon="0.40716">
        <ele>84</ele>
        <time>2016-02-24T13:13:29Z</time>
      </trkpt>
      <trkpt lat="45.28879" lon="0.40715">
        <ele>84</ele>
        <time>2016-02-24T13:13:33Z</time>
      </trkpt>
      <trkpt lat="45.28874" lon="0.40715">
        <ele>83</ele>
        <time>2016-02-24T13:13:38Z</time>
      </trkpt>
      <trkpt lat="45.2887" lon="0.40714">
        <ele>82</ele>
        <time>2016-02-24T13:13:43Z</time>
      </trkpt>
      <trkpt lat="45.28865" lon="0.40715">
        <ele>81</ele>
        <time>2016-02-24T13:13:47Z</time>
      </trkpt>
      <trkpt lat="45.28859" lon="0.40716">
        <ele>84</ele>
        <time>2016-02-24T13:13:52Z</time>
      </trkpt>
      <trkpt lat="45.28855" lon="0.40713">
        <ele>84</ele>
        <time>2016-02-24T13:13:56Z</time>
      </trkpt>
      <trkpt lat="45.28848" lon="0.40716">
        <ele>84</ele>
        <time>2016-02-24T13:14:01Z</time>
      </trkpt>
      <trkpt lat="45.28841" lon="0.40719">
        <ele>80</ele>
        <time>2016-02-24T13:14:06Z</time>
      </trkpt>
      <trkpt lat="45.28839" lon="0.40719">
        <ele>80</ele>
        <time>2016-02-24T13:14:10Z</time>
      </trkpt>
      <trkpt lat="45.28831" lon="0.40725">
        <ele>81</ele>
        <time>2016-02-24T13:14:15Z</time>
      </trkpt>
      <trkpt lat="45.28827" lon="0.40726">
        <ele>81</ele>
        <time>2016-02-24T13:14:19Z</time>
      </trkpt>
      <trkpt lat="45.28823" lon="0.40728">
        <ele>81</ele>
        <time>2016-02-24T13:14:23Z</time>
      </trkpt>
      <trkpt lat="45.28816" lon="0.4073">
        <ele>82</ele>
        <time>2016-02-24T13:14:27Z</time>
      </trkpt>
      <trkpt lat="45.28811" lon="0.40728">
        <ele>80</ele>
        <time>2016-02-24T13:14:31Z</time>
      </trkpt>
      <trkpt lat="45.28805" lon="0.40725">
        <ele>80</ele>
        <time>2016-02-24T13:14:36Z</time>
      </trkpt>
      <trkpt lat="45.288" lon="0.40724">
        <ele>79</ele>
        <time>2016-02-24T13:14:40Z</time>
      </trkpt>
      <trkpt lat="45.28793" lon="0.40724">
        <ele>79</ele>
        <time>2016-02-24T13:14:44Z</time>
      </trkpt>
      <trkpt lat="45.28787" lon="0.40724">
        <ele>79</ele>
        <time>2016-02-24T13:14:49Z</time>
      </trkpt>
      <trkpt lat="45.28783" lon="0.40724">
        <ele>79</ele>
        <time>2016-02-24T13:14:53Z</time>
      </trkpt>
      <trkpt lat="45.28779" lon="0.40724">
        <ele>80</ele>
        <time>2016-02-24T13:15:16Z</time>
      </trkpt>
      <trkpt lat="45.28776" lon="0.40727">
        <ele>79</ele>
        <time>2016-02-24T13:15:21Z</time>
      </trkpt>
      <trkpt lat="45.28774" lon="0.40732">
        <ele>80</ele>
        <time>2016-02-24T13:15:28Z</time>
      </trkpt>
      <trkpt lat="45.28771" lon="0.40737">
        <ele>82</ele>
        <time>2016-02-24T13:15:33Z</time>
      </trkpt>
      <trkpt lat="45.28767" lon="0.40742">
        <ele>82</ele>
        <time>2016-02-24T13:15:37Z</time>
      </trkpt>
      <trkpt lat="45.28767" lon="0.40746">
        <ele>84</ele>
        <time>2016-02-24T13:15:44Z</time>
      </trkpt>
      <trkpt lat="45.28767" lon="0.40751">
        <ele>84</ele>
        <time>2016-02-24T13:15:55Z</time>
      </trkpt>
      <trkpt lat="45.28765" lon="0.40757">
        <ele>84</ele>
        <time>2016-02-24T13:16:03Z</time>
      </trkpt>
      <trkpt lat="45.2876" lon="0.40764">
        <ele>84</ele>
        <time>2016-02-24T13:16:08Z</time>
      </trkpt>
      <trkpt lat="45.28758" lon="0.4077">
        <ele>84</ele>
        <time>2016-02-24T13:16:12Z</time>
      </trkpt>
      <trkpt lat="45.28755" lon="0.40775">
        <ele>85</ele>
        <time>2016-02-24T13:16:17Z</time>
      </trkpt>
      <trkpt lat="45.28751" lon="0.4078">
        <ele>84</ele>
        <time>2016-02-24T13:16:22Z</time>
      </trkpt>
      <trkpt lat="45.28746" lon="0.40785">
        <ele>82</ele>
        <time>2016-02-24T13:16:26Z</time>
      </trkpt>
      <trkpt lat="45.28742" lon="0.40792">
        <ele>85</ele>
        <time>2016-02-24T13:16:30Z</time>
      </trkpt>
      <trkpt lat="45.28737" lon="0.40793">
        <ele>86</ele>
        <time>2016-02-24T13:16:34Z</time>
      </trkpt>
      <trkpt lat="45.28741" lon="0.40786">
        <ele>85</ele>
        <time>2016-02-24T13:16:38Z</time>
      </trkpt>
      <trkpt lat="45.28737" lon="0.40786">
        <ele>85</ele>
        <time>2016-02-24T13:16:46Z</time>
      </trkpt>
      <trkpt lat="45.28732" lon="0.40787">
        <ele>85</ele>
        <time>2016-02-24T13:16:50Z</time>
      </trkpt>
      <trkpt lat="45.28729" lon="0.40787">
        <ele>84</ele>
        <time>2016-02-24T13:16:54Z</time>
      </trkpt>
      <trkpt lat="45.28723" lon="0.40788">
        <ele>84</ele>
        <time>2016-02-24T13:16:58Z</time>
      </trkpt>
      <trkpt lat="45.28718" lon="0.40787">
        <ele>91</ele>
        <time>2016-02-24T13:17:03Z</time>
      </trkpt>
      <trkpt lat="45.28714" lon="0.40786">
        <ele>92</ele>
        <time>2016-02-24T13:17:10Z</time>
      </trkpt>
      <trkpt lat="45.28711" lon="0.40786">
        <ele>91</ele>
        <time>2016-02-24T13:17:14Z</time>
      </trkpt>
      <trkpt lat="45.28706" lon="0.40785">
        <ele>93</ele>
        <time>2016-02-24T13:17:19Z</time>
      </trkpt>
      <trkpt lat="45.287" lon="0.40786">
        <ele>92</ele>
        <time>2016-02-24T13:17:23Z</time>
      </trkpt>
      <trkpt lat="45.28695" lon="0.40785">
        <ele>92</ele>
        <time>2016-02-24T13:17:27Z</time>
      </trkpt>
      <trkpt lat="45.28692" lon="0.40781">
        <ele>92</ele>
        <time>2016-02-24T13:17:32Z</time>
      </trkpt>
      <trkpt lat="45.28692" lon="0.40776">
        <ele>91</ele>
        <time>2016-02-24T13:17:36Z</time>
      </trkpt>
      <trkpt lat="45.28691" lon="0.40768">
        <ele>92</ele>
        <time>2016-02-24T13:17:41Z</time>
      </trkpt>
      <trkpt lat="45.28687" lon="0.40766">
        <ele>89</ele>
        <time>2016-02-24T13:17:47Z</time>
      </trkpt>
      <trkpt lat="45.28685" lon="0.40762">
        <ele>92</ele>
        <time>2016-02-24T13:17:52Z</time>
      </trkpt>
      <trkpt lat="45.28679" lon="0.40763">
        <ele>91</ele>
        <time>2016-02-24T13:17:57Z</time>
      </trkpt>
      <trkpt lat="45.28675" lon="0.40764">
        <ele>97</ele>
        <time>2016-02-24T13:18:06Z</time>
      </trkpt>
      <trkpt lat="45.28671" lon="0.40766">
        <ele>98</ele>
        <time>2016-02-24T13:18:11Z</time>
      </trkpt>
      <trkpt lat="45.28667" lon="0.4077">
        <ele>97</ele>
        <time>2016-02-24T13:18:16Z</time>
      </trkpt>
      <trkpt lat="45.28664" lon="0.40772">
        <ele>94</ele>
        <time>2016-02-24T13:18:23Z</time>
      </trkpt>
      <trkpt lat="45.2866" lon="0.40775">
        <ele>94</ele>
        <time>2016-02-24T13:18:28Z</time>
      </trkpt>
      <trkpt lat="45.28656" lon="0.40778">
        <ele>97</ele>
        <time>2016-02-24T13:18:34Z</time>
      </trkpt>
      <trkpt lat="45.28652" lon="0.4078">
        <ele>102</ele>
        <time>2016-02-24T13:18:40Z</time>
      </trkpt>
      <trkpt lat="45.28648" lon="0.40782">
        <ele>101</ele>
        <time>2016-02-24T13:18:46Z</time>
      </trkpt>
      <trkpt lat="45.28644" lon="0.40784">
        <ele>104</ele>
        <time>2016-02-24T13:18:52Z</time>
      </trkpt>
      <trkpt lat="45.2864" lon="0.40786">
        <ele>108</ele>
        <time>2016-02-24T13:19:00Z</time>
      </trkpt>
      <trkpt lat="45.28637" lon="0.4079">
        <ele>113</ele>
        <time>2016-02-24T13:19:11Z</time>
      </trkpt>
      <trkpt lat="45.28633" lon="0.40792">
        <ele>111</ele>
        <time>2016-02-24T13:19:15Z</time>
      </trkpt>
      <trkpt lat="45.28629" lon="0.40795">
        <ele>116</ele>
        <time>2016-02-24T13:19:22Z</time>
      </trkpt>
      <trkpt lat="45.28624" lon="0.40795">
        <ele>113</ele>
        <time>2016-02-24T13:19:27Z</time>
      </trkpt>
      <trkpt lat="45.2862" lon="0.40798">
        <ele>112</ele>
        <time>2016-02-24T13:19:31Z</time>
      </trkpt>
      <trkpt lat="45.28615" lon="0.40801">
        <ele>113</ele>
        <time>2016-02-24T13:19:36Z</time>
      </trkpt>
      <trkpt lat="45.28611" lon="0.40804">
        <ele>113</ele>
        <time>2016-02-24T13:19:40Z</time>
      </trkpt>
      <trkpt lat="45.28608" lon="0.40805">
        <ele>112</ele>
        <time>2016-02-24T13:19:45Z</time>
      </trkpt>
      <trkpt lat="45.28604" lon="0.40806">
        <ele>115</ele>
        <time>2016-02-24T13:19:50Z</time>
      </trkpt>
      <trkpt lat="45.286" lon="0.40808">
        <ele>115</ele>
        <time>2016-02-24T13:19:56Z</time>
      </trkpt>
      <trkpt lat="45.28596" lon="0.40809">
        <ele>115</ele>
        <time>2016-02-24T13:20:00Z</time>
      </trkpt>
      <trkpt lat="45.28594" lon="0.40813">
        <ele>116</ele>
        <time>2016-02-24T13:20:06Z</time>
      </trkpt>
      <trkpt lat="45.2859" lon="0.40815">
        <ele>116</ele>
        <time>2016-02-24T13:20:10Z</time>
      </trkpt>
      <trkpt lat="45.28585" lon="0.40819">
        <ele>117</ele>
        <time>2016-02-24T13:20:15Z</time>
      </trkpt>
      <trkpt lat="45.28583" lon="0.40823">
        <ele>117</ele>
        <time>2016-02-24T13:20:25Z</time>
      </trkpt>
      <trkpt lat="45.28579" lon="0.40827">
        <ele>114</ele>
        <time>2016-02-24T13:20:31Z</time>
      </trkpt>
      <trkpt lat="45.28574" lon="0.40828">
        <ele>114</ele>
        <time>2016-02-24T13:20:36Z</time>
      </trkpt>
      <trkpt lat="45.28571" lon="0.40831">
        <ele>113</ele>
        <time>2016-02-24T13:20:41Z</time>
      </trkpt>
      <trkpt lat="45.28567" lon="0.40834">
        <ele>114</ele>
        <time>2016-02-24T13:20:45Z</time>
      </trkpt>
      <trkpt lat="45.28562" lon="0.40837">
        <ele>114</ele>
        <time>2016-02-24T13:20:50Z</time>
      </trkpt>
      <trkpt lat="45.28559" lon="0.40838">
        <ele>113</ele>
        <time>2016-02-24T13:20:55Z</time>
      </trkpt>
      <trkpt lat="45.28553" lon="0.40841">
        <ele>113</ele>
        <time>2016-02-24T13:20:59Z</time>
      </trkpt>
      <trkpt lat="45.2855" lon="0.40844">
        <ele>112</ele>
        <time>2016-02-24T13:21:03Z</time>
      </trkpt>
      <trkpt lat="45.28547" lon="0.40847">
        <ele>114</ele>
        <time>2016-02-24T13:21:07Z</time>
      </trkpt>
      <trkpt lat="45.28543" lon="0.4085">
        <ele>114</ele>
        <time>2016-02-24T13:21:12Z</time>
      </trkpt>
      <trkpt lat="45.28538" lon="0.40854">
        <ele>114</ele>
        <time>2016-02-24T13:21:17Z</time>
      </trkpt>
      <trkpt lat="45.28534" lon="0.40858">
        <ele>118</ele>
        <time>2016-02-24T13:21:23Z</time>
      </trkpt>
      <trkpt lat="45.2853" lon="0.40858">
        <ele>119</ele>
        <time>2016-02-24T13:21:27Z</time>
      </trkpt>
      <trkpt lat="45.28526" lon="0.4086">
        <ele>121</ele>
        <time>2016-02-24T13:21:33Z</time>
      </trkpt>
      <trkpt lat="45.28522" lon="0.40861">
        <ele>121</ele>
        <time>2016-02-24T13:21:37Z</time>
      </trkpt>
      <trkpt lat="45.28517" lon="0.40868">
        <ele>121</ele>
        <time>2016-02-24T13:21:42Z</time>
      </trkpt>
      <trkpt lat="45.28512" lon="0.40865">
        <ele>118</ele>
        <time>2016-02-24T13:21:46Z</time>
      </trkpt>
      <trkpt lat="45.28508" lon="0.40871">
        <ele>120</ele>
        <time>2016-02-24T13:21:50Z</time>
      </trkpt>
      <trkpt lat="45.28505" lon="0.40866">
        <ele>116</ele>
        <time>2016-02-24T13:21:55Z</time>
      </trkpt>
      <trkpt lat="45.28499" lon="0.4087">
        <ele>118</ele>
        <time>2016-02-24T13:22:00Z</time>
      </trkpt>
      <trkpt lat="45.28494" lon="0.40874">
        <ele>118</ele>
        <time>2016-02-24T13:22:04Z</time>
      </trkpt>
      <trkpt lat="45.28491" lon="0.40876">
        <ele>120</ele>
        <time>2016-02-24T13:22:09Z</time>
      </trkpt>
      <trkpt lat="45.28486" lon="0.40883">
        <ele>121</ele>
        <time>2016-02-24T13:22:14Z</time>
      </trkpt>
      <trkpt lat="45.28482" lon="0.40885">
        <ele>123</ele>
        <time>2016-02-24T13:22:20Z</time>
      </trkpt>
      <trkpt lat="45.28479" lon="0.40886">
        <ele>122</ele>
        <time>2016-02-24T13:22:24Z</time>
      </trkpt>
      <trkpt lat="45.28474" lon="0.40891">
        <ele>122</ele>
        <time>2016-02-24T13:22:28Z</time>
      </trkpt>
      <trkpt lat="45.28471" lon="0.40897">
        <ele>119</ele>
        <time>2016-02-24T13:22:33Z</time>
      </trkpt>
      <trkpt lat="45.2847" lon="0.40904">
        <ele>121</ele>
        <time>2016-02-24T13:22:37Z</time>
      </trkpt>
      <trkpt lat="45.28468" lon="0.40908">
        <ele>122</ele>
        <time>2016-02-24T13:22:44Z</time>
      </trkpt>
      <trkpt lat="45.28464" lon="0.40912">
        <ele>121</ele>
        <time>2016-02-24T13:22:49Z</time>
      </trkpt>
      <trkpt lat="45.28463" lon="0.40917">
        <ele>123</ele>
        <time>2016-02-24T13:22:53Z</time>
      </trkpt>
      <trkpt lat="45.2846" lon="0.40921">
        <ele>124</ele>
        <time>2016-02-24T13:22:58Z</time>
      </trkpt>
      <trkpt lat="45.28457" lon="0.40925">
        <ele>125</ele>
        <time>2016-02-24T13:23:02Z</time>
      </trkpt>
      <trkpt lat="45.28453" lon="0.4093">
        <ele>125</ele>
        <time>2016-02-24T13:23:06Z</time>
      </trkpt>
      <trkpt lat="45.28449" lon="0.40935">
        <ele>126</ele>
        <time>2016-02-24T13:23:11Z</time>
      </trkpt>
      <trkpt lat="45.28446" lon="0.40935">
        <ele>127</ele>
        <time>2016-02-24T13:23:19Z</time>
      </trkpt>
      <trkpt lat="45.28441" lon="0.40936">
        <ele>125</ele>
        <time>2016-02-24T13:23:27Z</time>
      </trkpt>
      <trkpt lat="45.28435" lon="0.40938">
        <ele>125</ele>
        <time>2016-02-24T13:23:32Z</time>
      </trkpt>
      <trkpt lat="45.2843" lon="0.40942">
        <ele>124</ele>
        <time>2016-02-24T13:23:36Z</time>
      </trkpt>
      <trkpt lat="45.28426" lon="0.40946">
        <ele>122</ele>
        <time>2016-02-24T13:23:41Z</time>
      </trkpt>
      <trkpt lat="45.28423" lon="0.40949">
        <ele>122</ele>
        <time>2016-02-24T13:23:47Z</time>
      </trkpt>
      <trkpt lat="45.28421" lon="0.40956">
        <ele>123</ele>
        <time>2016-02-24T13:23:51Z</time>
      </trkpt>
      <trkpt lat="45.2842" lon="0.40963">
        <ele>125</ele>
        <time>2016-02-24T13:23:55Z</time>
      </trkpt>
      <trkpt lat="45.28419" lon="0.40968">
        <ele>125</ele>
        <time>2016-02-24T13:24:05Z</time>
      </trkpt>
      <trkpt lat="45.2842" lon="0.40974">
        <ele>126</ele>
        <time>2016-02-24T13:24:11Z</time>
      </trkpt>
      <trkpt lat="45.28416" lon="0.4098">
        <ele>126</ele>
        <time>2016-02-24T13:24:16Z</time>
      </trkpt>
      <trkpt lat="45.28415" lon="0.40986">
        <ele>126</ele>
        <time>2016-02-24T13:24:20Z</time>
      </trkpt>
      <trkpt lat="45.28417" lon="0.40991">
        <ele>127</ele>
        <time>2016-02-24T13:24:26Z</time>
      </trkpt>
      <trkpt lat="45.2842" lon="0.40998">
        <ele>126</ele>
        <time>2016-02-24T13:24:31Z</time>
      </trkpt>
      <trkpt lat="45.28425" lon="0.41004">
        <ele>128</ele>
        <time>2016-02-24T13:24:35Z</time>
      </trkpt>
      <trkpt lat="45.28422" lon="0.41">
        <ele>127</ele>
        <time>2016-02-24T13:24:47Z</time>
      </trkpt>
      <trkpt lat="45.2842" lon="0.40992">
        <ele>126</ele>
        <time>2016-02-24T13:24:52Z</time>
      </trkpt>
      <trkpt lat="45.28416" lon="0.40991">
        <ele>124</ele>
        <time>2016-02-24T13:24:57Z</time>
      </trkpt>
      <trkpt lat="45.28413" lon="0.40994">
        <ele>127</ele>
        <time>2016-02-24T13:25:03Z</time>
      </trkpt>
      <trkpt lat="45.28409" lon="0.41003">
        <ele>127</ele>
        <time>2016-02-24T13:25:08Z</time>
      </trkpt>
      <trkpt lat="45.28405" lon="0.41009">
        <ele>129</ele>
        <time>2016-02-24T13:25:12Z</time>
      </trkpt>
      <trkpt lat="45.28402" lon="0.41013">
        <ele>129</ele>
        <time>2016-02-24T13:25:16Z</time>
      </trkpt>
      <trkpt lat="45.28399" lon="0.41017">
        <ele>129</ele>
        <time>2016-02-24T13:25:21Z</time>
      </trkpt>
      <trkpt lat="45.28397" lon="0.41024">
        <ele>130</ele>
        <time>2016-02-24T13:25:26Z</time>
      </trkpt>
      <trkpt lat="45.28394" lon="0.41027">
        <ele>130</ele>
        <time>2016-02-24T13:25:30Z</time>
      </trkpt>
      <trkpt lat="45.2839" lon="0.41033">
        <ele>130</ele>
        <time>2016-02-24T13:25:35Z</time>
      </trkpt>
      <trkpt lat="45.28387" lon="0.41043">
        <ele>131</ele>
        <time>2016-02-24T13:25:40Z</time>
      </trkpt>
      <trkpt lat="45.28382" lon="0.41051">
        <ele>132</ele>
        <time>2016-02-24T13:25:45Z</time>
      </trkpt>
      <trkpt lat="45.28378" lon="0.41054">
        <ele>134</ele>
        <time>2016-02-24T13:25:52Z</time>
      </trkpt>
      <trkpt lat="45.28374" lon="0.41059">
        <ele>134</ele>
        <time>2016-02-24T13:25:57Z</time>
      </trkpt>
      <trkpt lat="45.28372" lon="0.41062">
        <ele>133</ele>
        <time>2016-02-24T13:26:01Z</time>
      </trkpt>
      <trkpt lat="45.28369" lon="0.41071">
        <ele>134</ele>
        <time>2016-02-24T13:26:06Z</time>
      </trkpt>
      <trkpt lat="45.28365" lon="0.41077">
        <ele>136</ele>
        <time>2016-02-24T13:26:11Z</time>
      </trkpt>
      <trkpt lat="45.28362" lon="0.41083">
        <ele>136</ele>
        <time>2016-02-24T13:26:15Z</time>
      </trkpt>
      <trkpt lat="45.28359" lon="0.41087">
        <ele>136</ele>
        <time>2016-02-24T13:26:19Z</time>
      </trkpt>
      <trkpt lat="45.28356" lon="0.41091">
        <ele>137</ele>
        <time>2016-02-24T13:26:23Z</time>
      </trkpt>
      <trkpt lat="45.28352" lon="0.41093">
        <ele>137</ele>
        <time>2016-02-24T13:26:30Z</time>
      </trkpt>
      <trkpt lat="45.28349" lon="0.41095">
        <ele>135</ele>
        <time>2016-02-24T13:26:34Z</time>
      </trkpt>
      <trkpt lat="45.28347" lon="0.411">
        <ele>138</ele>
        <time>2016-02-24T13:26:39Z</time>
      </trkpt>
      <trkpt lat="45.28342" lon="0.41106">
        <ele>139</ele>
        <time>2016-02-24T13:26:43Z</time>
      </trkpt>
      <trkpt lat="45.28338" lon="0.4111">
        <ele>138</ele>
        <time>2016-02-24T13:26:47Z</time>
      </trkpt>
      <trkpt lat="45.28335" lon="0.41115">
        <ele>140</ele>
        <time>2016-02-24T13:26:51Z</time>
      </trkpt>
      <trkpt lat="45.28331" lon="0.41122">
        <ele>138</ele>
        <time>2016-02-24T13:26:56Z</time>
      </trkpt>
      <trkpt lat="45.28326" lon="0.41128">
        <ele>137</ele>
        <time>2016-02-24T13:27:01Z</time>
      </trkpt>
      <trkpt lat="45.28324" lon="0.41132">
        <ele>138</ele>
        <time>2016-02-24T13:27:05Z</time>
      </trkpt>
      <trkpt lat="45.2832" lon="0.41137">
        <ele>137</ele>
        <time>2016-02-24T13:27:10Z</time>
      </trkpt>
      <trkpt lat="45.28317" lon="0.41141">
        <ele>136</ele>
        <time>2016-02-24T13:27:15Z</time>
      </trkpt>
      <trkpt lat="45.28312" lon="0.4115">
        <ele>136</ele>
        <time>2016-02-24T13:27:20Z</time>
      </trkpt>
      <trkpt lat="45.28308" lon="0.41155">
        <ele>136</ele>
        <time>2016-02-24T13:27:24Z</time>
      </trkpt>
      <trkpt lat="45.28304" lon="0.41158">
        <ele>139</ele>
        <time>2016-02-24T13:27:31Z</time>
      </trkpt>
      <trkpt lat="45.283" lon="0.41159">
        <ele>138</ele>
        <time>2016-02-24T13:27:37Z</time>
      </trkpt>
      <trkpt lat="45.28298" lon="0.41165">
        <ele>139</ele>
        <time>2016-02-24T13:27:41Z</time>
      </trkpt>
      <trkpt lat="45.28294" lon="0.41177">
        <ele>140</ele>
        <time>2016-02-24T13:27:46Z</time>
      </trkpt>
      <trkpt lat="45.2829" lon="0.41176">
        <ele>139</ele>
        <time>2016-02-24T13:27:51Z</time>
      </trkpt>
      <trkpt lat="45.28287" lon="0.41182">
        <ele>140</ele>
        <time>2016-02-24T13:27:55Z</time>
      </trkpt>
      <trkpt lat="45.28285" lon="0.41185">
        <ele>140</ele>
        <time>2016-02-24T13:28:00Z</time>
      </trkpt>
      <trkpt lat="45.28281" lon="0.41192">
        <ele>140</ele>
        <time>2016-02-24T13:28:04Z</time>
      </trkpt>
      <trkpt lat="45.28275" lon="0.41203">
        <ele>139</ele>
        <time>2016-02-24T13:28:09Z</time>
      </trkpt>
      <trkpt lat="45.28272" lon="0.41207">
        <ele>139</ele>
        <time>2016-02-24T13:28:14Z</time>
      </trkpt>
      <trkpt lat="45.28271" lon="0.4121">
        <ele>139</ele>
        <time>2016-02-24T13:28:18Z</time>
      </trkpt>
      <trkpt lat="45.28268" lon="0.41215">
        <ele>137</ele>
        <time>2016-02-24T13:28:25Z</time>
      </trkpt>
      <trkpt lat="45.28263" lon="0.41221">
        <ele>137</ele>
        <time>2016-02-24T13:28:30Z</time>
      </trkpt>
      <trkpt lat="45.2826" lon="0.41225">
        <ele>137</ele>
        <time>2016-02-24T13:28:35Z</time>
      </trkpt>
      <trkpt lat="45.28257" lon="0.41227">
        <ele>138</ele>
        <time>2016-02-24T13:28:40Z</time>
      </trkpt>
      <trkpt lat="45.28253" lon="0.41233">
        <ele>138</ele>
        <time>2016-02-24T13:28:45Z</time>
      </trkpt>
      <trkpt lat="45.2825" lon="0.41238">
        <ele>138</ele>
        <time>2016-02-24T13:28:49Z</time>
      </trkpt>
      <trkpt lat="45.28247" lon="0.41245">
        <ele>136</ele>
        <time>2016-02-24T13:28:54Z</time>
      </trkpt>
      <trkpt lat="45.28244" lon="0.41248">
        <ele>135</ele>
        <time>2016-02-24T13:28:58Z</time>
      </trkpt>
      <trkpt lat="45.2824" lon="0.41255">
        <ele>137</ele>
        <time>2016-02-24T13:29:02Z</time>
      </trkpt>
      <trkpt lat="45.28238" lon="0.4126">
        <ele>137</ele>
        <time>2016-02-24T13:29:07Z</time>
      </trkpt>
      <trkpt lat="45.28235" lon="0.41266">
        <ele>138</ele>
        <time>2016-02-24T13:29:11Z</time>
      </trkpt>
      <trkpt lat="45.28231" lon="0.41274">
        <ele>139</ele>
        <time>2016-02-24T13:29:16Z</time>
      </trkpt>
      <trkpt lat="45.28229" lon="0.41278">
        <ele>139</ele>
        <time>2016-02-24T13:29:21Z</time>
      </trkpt>
      <trkpt lat="45.28228" lon="0.41282">
        <ele>140</ele>
        <time>2016-02-24T13:29:30Z</time>
      </trkpt>
      <trkpt lat="45.28223" lon="0.4129">
        <ele>142</ele>
        <time>2016-02-24T13:29:35Z</time>
      </trkpt>
      <trkpt lat="45.2822" lon="0.41286">
        <ele>141</ele>
        <time>2016-02-24T13:30:02Z</time>
      </trkpt>
      <trkpt lat="45.28215" lon="0.41283">
        <ele>143</ele>
        <time>2016-02-24T13:30:07Z</time>
      </trkpt>
      <trkpt lat="45.28211" lon="0.41278">
        <ele>141</ele>
        <time>2016-02-24T13:30:11Z</time>
      </trkpt>
      <trkpt lat="45.28209" lon="0.41273">
        <ele>137</ele>
        <time>2016-02-24T13:30:16Z</time>
      </trkpt>
      <trkpt lat="45.28209" lon="0.41268">
        <ele>136</ele>
        <time>2016-02-24T13:30:20Z</time>
      </trkpt>
      <trkpt lat="45.28211" lon="0.41264">
        <ele>140</ele>
        <time>2016-02-24T13:30:24Z</time>
      </trkpt>
      <trkpt lat="45.28208" lon="0.41262">
        <ele>139</ele>
        <time>2016-02-24T13:31:07Z</time>
      </trkpt>
      <trkpt lat="45.28204" lon="0.41256">
        <ele>140</ele>
        <time>2016-02-24T13:31:12Z</time>
      </trkpt>
      <trkpt lat="45.282" lon="0.4125">
        <ele>140</ele>
        <time>2016-02-24T13:31:17Z</time>
      </trkpt>
      <trkpt lat="45.28198" lon="0.41245">
        <ele>141</ele>
        <time>2016-02-24T13:31:21Z</time>
      </trkpt>
      <trkpt lat="45.28195" lon="0.41248">
        <ele>140</ele>
        <time>2016-02-24T13:31:48Z</time>
      </trkpt>
      <trkpt lat="45.2819" lon="0.41249">
        <ele>140</ele>
        <time>2016-02-24T13:31:52Z</time>
      </trkpt>
      <trkpt lat="45.28186" lon="0.41252">
        <ele>142</ele>
        <time>2016-02-24T13:31:56Z</time>
      </trkpt>
      <trkpt lat="45.2818" lon="0.41259">
        <ele>144</ele>
        <time>2016-02-24T13:32:01Z</time>
      </trkpt>
      <trkpt lat="45.28177" lon="0.41258">
        <ele>143</ele>
        <time>2016-02-24T13:32:06Z</time>
      </trkpt>
      <trkpt lat="45.28171" lon="0.41262">
        <ele>143</ele>
        <time>2016-02-24T13:32:10Z</time>
      </trkpt>
      <trkpt lat="45.28167" lon="0.41262">
        <ele>140</ele>
        <time>2016-02-24T13:32:17Z</time>
      </trkpt>
      <trkpt lat="45.28163" lon="0.41258">
        <ele>140</ele>
        <time>2016-02-24T13:32:39Z</time>
      </trkpt>
      <trkpt lat="45.2816" lon="0.41253">
        <ele>140</ele>
        <time>2016-02-24T13:32:43Z</time>
      </trkpt>
      <trkpt lat="45.28154" lon="0.41248">
        <ele>139</ele>
        <time>2016-02-24T13:32:48Z</time>
      </trkpt>
      <trkpt lat="45.28151" lon="0.41245">
        <ele>140</ele>
        <time>2016-02-24T13:32:52Z</time>
      </trkpt>
      <trkpt lat="45.28148" lon="0.41241">
        <ele>137</ele>
        <time>2016-02-24T13:32:57Z</time>
      </trkpt>
      <trkpt lat="45.28144" lon="0.41236">
        <ele>136</ele>
        <time>2016-02-24T13:33:01Z</time>
      </trkpt>
      <trkpt lat="45.28143" lon="0.41232">
        <ele>137</ele>
        <time>2016-02-24T13:33:12Z</time>
      </trkpt>
      <trkpt lat="45.2814" lon="0.41225">
        <ele>138</ele>
        <time>2016-02-24T13:33:17Z</time>
      </trkpt>
      <trkpt lat="45.28138" lon="0.41223">
        <ele>139</ele>
        <time>2016-02-24T13:33:21Z</time>
      </trkpt>
      <trkpt lat="45.28134" lon="0.41218">
        <ele>140</ele>
        <time>2016-02-24T13:33:25Z</time>
      </trkpt>
      <trkpt lat="45.2813" lon="0.41216">
        <ele>137</ele>
        <time>2016-02-24T13:33:32Z</time>
      </trkpt>
      <trkpt lat="45.28127" lon="0.41218">
        <ele>134</ele>
        <time>2016-02-24T13:33:37Z</time>
      </trkpt>
      <trkpt lat="45.28123" lon="0.41219">
        <ele>136</ele>
        <time>2016-02-24T13:33:41Z</time>
      </trkpt>
      <trkpt lat="45.28119" lon="0.41221">
        <ele>136</ele>
        <time>2016-02-24T13:33:46Z</time>
      </trkpt>
      <trkpt lat="45.28115" lon="0.41224">
        <ele>136</ele>
        <time>2016-02-24T13:33:51Z</time>
      </trkpt>
      <trkpt lat="45.28111" lon="0.41226">
        <ele>137</ele>
        <time>2016-02-24T13:33:55Z</time>
      </trkpt>
      <trkpt lat="45.28106" lon="0.41235">
        <ele>136</ele>
        <time>2016-02-24T13:34:00Z</time>
      </trkpt>
      <trkpt lat="45.28103" lon="0.41239">
        <ele>137</ele>
        <time>2016-02-24T13:34:05Z</time>
      </trkpt>
      <trkpt lat="45.28098" lon="0.41243">
        <ele>136</ele>
        <time>2016-02-24T13:34:10Z</time>
      </trkpt>
      <trkpt lat="45.28095" lon="0.41247">
        <ele>138</ele>
        <time>2016-02-24T13:34:17Z</time>
      </trkpt>
      <trkpt lat="45.28089" lon="0.41248">
        <ele>137</ele>
        <time>2016-02-24T13:34:21Z</time>
      </trkpt>
      <trkpt lat="45.28086" lon="0.41251">
        <ele>140</ele>
        <time>2016-02-24T13:34:26Z</time>
      </trkpt>
      <trkpt lat="45.28085" lon="0.41256">
        <ele>137</ele>
        <time>2016-02-24T13:34:40Z</time>
      </trkpt>
      <trkpt lat="45.28084" lon="0.41261">
        <ele>135</ele>
        <time>2016-02-24T13:34:45Z</time>
      </trkpt>
      <trkpt lat="45.28081" lon="0.41269">
        <ele>135</ele>
        <time>2016-02-24T13:34:50Z</time>
      </trkpt>
      <trkpt lat="45.2808" lon="0.41275">
        <ele>133</ele>
        <time>2016-02-24T13:34:55Z</time>
      </trkpt>
      <trkpt lat="45.28081" lon="0.4128">
        <ele>134</ele>
        <time>2016-02-24T13:34:59Z</time>
      </trkpt>
      <trkpt lat="45.28082" lon="0.41287">
        <ele>137</ele>
        <time>2016-02-24T13:35:04Z</time>
      </trkpt>
      <trkpt lat="45.28083" lon="0.41292">
        <ele>136</ele>
        <time>2016-02-24T13:35:11Z</time>
      </trkpt>
      <trkpt lat="45.28084" lon="0.41297">
        <ele>136</ele>
        <time>2016-02-24T13:35:15Z</time>
      </trkpt>
      <trkpt lat="45.28085" lon="0.41303">
        <ele>135</ele>
        <time>2016-02-24T13:35:20Z</time>
      </trkpt>
      <trkpt lat="45.28086" lon="0.41308">
        <ele>136</ele>
        <time>2016-02-24T13:35:24Z</time>
      </trkpt>
      <trkpt lat="45.28086" lon="0.41313">
        <ele>137</ele>
        <time>2016-02-24T13:35:29Z</time>
      </trkpt>
      <trkpt lat="45.28086" lon="0.41319">
        <ele>138</ele>
        <time>2016-02-24T13:35:47Z</time>
      </trkpt>
      <trkpt lat="45.28087" lon="0.41329">
        <ele>139</ele>
        <time>2016-02-24T13:35:51Z</time>
      </trkpt>
      <trkpt lat="45.28087" lon="0.41343">
        <ele>142</ele>
        <time>2016-02-24T13:35:55Z</time>
      </trkpt>
      <trkpt lat="45.28088" lon="0.4135">
        <ele>143</ele>
        <time>2016-02-24T13:36:00Z</time>
      </trkpt>
      <trkpt lat="45.28086" lon="0.41356">
        <ele>144</ele>
        <time>2016-02-24T13:36:05Z</time>
      </trkpt>
      <trkpt lat="45.28085" lon="0.41362">
        <ele>144</ele>
        <time>2016-02-24T13:36:10Z</time>
      </trkpt>
      <trkpt lat="45.28084" lon="0.41368">
        <ele>147</ele>
        <time>2016-02-24T13:36:16Z</time>
      </trkpt>
      <trkpt lat="45.28085" lon="0.41374">
        <ele>149</ele>
        <time>2016-02-24T13:36:20Z</time>
      </trkpt>
      <trkpt lat="45.28084" lon="0.4138">
        <ele>150</ele>
        <time>2016-02-24T13:36:25Z</time>
      </trkpt>
      <trkpt lat="45.28082" lon="0.41386">
        <ele>148</ele>
        <time>2016-02-24T13:36:30Z</time>
      </trkpt>
      <trkpt lat="45.28079" lon="0.41391">
        <ele>151</ele>
        <time>2016-02-24T13:36:35Z</time>
      </trkpt>
      <trkpt lat="45.28076" lon="0.41398">
        <ele>150</ele>
        <time>2016-02-24T13:36:40Z</time>
      </trkpt>
      <trkpt lat="45.28074" lon="0.41403">
        <ele>151</ele>
        <time>2016-02-24T13:36:44Z</time>
      </trkpt>
      <trkpt lat="45.28071" lon="0.41411">
        <ele>151</ele>
        <time>2016-02-24T13:36:48Z</time>
      </trkpt>
      <trkpt lat="45.2807" lon="0.41414">
        <ele>151</ele>
        <time>2016-02-24T13:36:52Z</time>
      </trkpt>
      <trkpt lat="45.28067" lon="0.41419">
        <ele>150</ele>
        <time>2016-02-24T13:36:56Z</time>
      </trkpt>
      <trkpt lat="45.28066" lon="0.41425">
        <ele>152</ele>
        <time>2016-02-24T13:37:01Z</time>
      </trkpt>
      <trkpt lat="45.28064" lon="0.41432">
        <ele>153</ele>
        <time>2016-02-24T13:37:06Z</time>
      </trkpt>
      <trkpt lat="45.2806" lon="0.41435">
        <ele>152</ele>
        <time>2016-02-24T13:37:12Z</time>
      </trkpt>
      <trkpt lat="45.28058" lon="0.41441">
        <ele>154</ele>
        <time>2016-02-24T13:37:16Z</time>
      </trkpt>
      <trkpt lat="45.28055" lon="0.41444">
        <ele>154</ele>
        <time>2016-02-24T13:37:25Z</time>
      </trkpt>
      <trkpt lat="45.28053" lon="0.41446">
        <ele>155</ele>
        <time>2016-02-24T13:37:32Z</time>
      </trkpt>
      <trkpt lat="45.28047" lon="0.41459">
        <ele>156</ele>
        <time>2016-02-24T13:37:36Z</time>
      </trkpt>
      <trkpt lat="45.28044" lon="0.41465">
        <ele>153</ele>
        <time>2016-02-24T13:37:40Z</time>
      </trkpt>
      <trkpt lat="45.28042" lon="0.41472">
        <ele>153</ele>
        <time>2016-02-24T13:37:45Z</time>
      </trkpt>
      <trkpt lat="45.2804" lon="0.41477">
        <ele>153</ele>
        <time>2016-02-24T13:37:52Z</time>
      </trkpt>
      <trkpt lat="45.28034" lon="0.41486">
        <ele>156</ele>
        <time>2016-02-24T13:37:57Z</time>
      </trkpt>
      <trkpt lat="45.28031" lon="0.41491">
        <ele>155</ele>
        <time>2016-02-24T13:38:04Z</time>
      </trkpt>
      <trkpt lat="45.28027" lon="0.41497">
        <ele>154</ele>
        <time>2016-02-24T13:38:09Z</time>
      </trkpt>
      <trkpt lat="45.28025" lon="0.41501">
        <ele>154</ele>
        <time>2016-02-24T13:38:15Z</time>
      </trkpt>
      <trkpt lat="45.28022" lon="0.41508">
        <ele>155</ele>
        <time>2016-02-24T13:38:19Z</time>
      </trkpt>
      <trkpt lat="45.28018" lon="0.41511">
        <ele>156</ele>
        <time>2016-02-24T13:38:23Z</time>
      </trkpt>
      <trkpt lat="45.28016" lon="0.41518">
        <ele>156</ele>
        <time>2016-02-24T13:38:27Z</time>
      </trkpt>
      <trkpt lat="45.28012" lon="0.4152">
        <ele>156</ele>
        <time>2016-02-24T13:38:33Z</time>
      </trkpt>
      <trkpt lat="45.28012" lon="0.41526">
        <ele>157</ele>
        <time>2016-02-24T13:38:39Z</time>
      </trkpt>
      <trkpt lat="45.28006" lon="0.41533">
        <ele>154</ele>
        <time>2016-02-24T13:38:43Z</time>
      </trkpt>
      <trkpt lat="45.28002" lon="0.41537">
        <ele>153</ele>
        <time>2016-02-24T13:38:48Z</time>
      </trkpt>
      <trkpt lat="45.27998" lon="0.41544">
        <ele>155</ele>
        <time>2016-02-24T13:38:52Z</time>
      </trkpt>
      <trkpt lat="45.27994" lon="0.4155">
        <ele>151</ele>
        <time>2016-02-24T13:38:56Z</time>
      </trkpt>
      <trkpt lat="45.27992" lon="0.41558">
        <ele>151</ele>
        <time>2016-02-24T13:39:01Z</time>
      </trkpt>
      <trkpt lat="45.27993" lon="0.41563">
        <ele>157</ele>
        <time>2016-02-24T13:39:18Z</time>
      </trkpt>
      <trkpt lat="45.27992" lon="0.4157">
        <ele>158</ele>
        <time>2016-02-24T13:39:22Z</time>
      </trkpt>
      <trkpt lat="45.27987" lon="0.41576">
        <ele>156</ele>
        <time>2016-02-24T13:39:26Z</time>
      </trkpt>
      <trkpt lat="45.2798" lon="0.41583">
        <ele>156</ele>
        <time>2016-02-24T13:39:30Z</time>
      </trkpt>
      <trkpt lat="45.27979" lon="0.41588">
        <ele>153</ele>
        <time>2016-02-24T13:39:35Z</time>
      </trkpt>
      <trkpt lat="45.27976" lon="0.41592">
        <ele>153</ele>
        <time>2016-02-24T13:39:41Z</time>
      </trkpt>
      <trkpt lat="45.27973" lon="0.41595">
        <ele>154</ele>
        <time>2016-02-24T13:39:45Z</time>
      </trkpt>
      <trkpt lat="45.27966" lon="0.41607">
        <ele>154</ele>
        <time>2016-02-24T13:39:50Z</time>
      </trkpt>
      <trkpt lat="45.27963" lon="0.41612">
        <ele>153</ele>
        <time>2016-02-24T13:39:54Z</time>
      </trkpt>
      <trkpt lat="45.27961" lon="0.41616">
        <ele>156</ele>
        <time>2016-02-24T13:39:59Z</time>
      </trkpt>
      <trkpt lat="45.27956" lon="0.41624">
        <ele>157</ele>
        <time>2016-02-24T13:40:04Z</time>
      </trkpt>
      <trkpt lat="45.27953" lon="0.41628">
        <ele>156</ele>
        <time>2016-02-24T13:40:08Z</time>
      </trkpt>
      <trkpt lat="45.27949" lon="0.41635">
        <ele>154</ele>
        <time>2016-02-24T13:40:13Z</time>
      </trkpt>
      <trkpt lat="45.27948" lon="0.4164">
        <ele>153</ele>
        <time>2016-02-24T13:40:18Z</time>
      </trkpt>
      <trkpt lat="45.27946" lon="0.41646">
        <ele>155</ele>
        <time>2016-02-24T13:40:22Z</time>
      </trkpt>
      <trkpt lat="45.27944" lon="0.41651">
        <ele>156</ele>
        <time>2016-02-24T13:40:27Z</time>
      </trkpt>
      <trkpt lat="45.27942" lon="0.41657">
        <ele>156</ele>
        <time>2016-02-24T13:40:31Z</time>
      </trkpt>
      <trkpt lat="45.27938" lon="0.41666">
        <ele>155</ele>
        <time>2016-02-24T13:40:35Z</time>
      </trkpt>
      <trkpt lat="45.27936" lon="0.41672">
        <ele>158</ele>
        <time>2016-02-24T13:40:40Z</time>
      </trkpt>
      <trkpt lat="45.27933" lon="0.41676">
        <ele>156</ele>
        <time>2016-02-24T13:40:44Z</time>
      </trkpt>
      <trkpt lat="45.27928" lon="0.41685">
        <ele>158</ele>
        <time>2016-02-24T13:40:49Z</time>
      </trkpt>
      <trkpt lat="45.27926" lon="0.41692">
        <ele>162</ele>
        <time>2016-02-24T13:40:53Z</time>
      </trkpt>
      <trkpt lat="45.27927" lon="0.41698">
        <ele>161</ele>
        <time>2016-02-24T13:41:01Z</time>
      </trkpt>
      <trkpt lat="45.27928" lon="0.41702">
        <ele>154</ele>
        <time>2016-02-24T13:41:26Z</time>
      </trkpt>
      <trkpt lat="45.27922" lon="0.41712">
        <ele>152</ele>
        <time>2016-02-24T13:41:31Z</time>
      </trkpt>
      <trkpt lat="45.2792" lon="0.41717">
        <ele>151</ele>
        <time>2016-02-24T13:41:35Z</time>
      </trkpt>
      <trkpt lat="45.27919" lon="0.41724">
        <ele>151</ele>
        <time>2016-02-24T13:41:39Z</time>
      </trkpt>
      <trkpt lat="45.27915" lon="0.41731">
        <ele>151</ele>
        <time>2016-02-24T13:41:44Z</time>
      </trkpt>
      <trkpt lat="45.27913" lon="0.41738">
        <ele>150</ele>
        <time>2016-02-24T13:41:49Z</time>
      </trkpt>
      <trkpt lat="45.27913" lon="0.41744">
        <ele>153</ele>
        <time>2016-02-24T13:41:53Z</time>
      </trkpt>
      <trkpt lat="45.2791" lon="0.41751">
        <ele>153</ele>
        <time>2016-02-24T13:41:57Z</time>
      </trkpt>
      <trkpt lat="45.27907" lon="0.41757">
        <ele>153</ele>
        <time>2016-02-24T13:42:02Z</time>
      </trkpt>
      <trkpt lat="45.27903" lon="0.41756">
        <ele>153</ele>
        <time>2016-02-24T13:42:10Z</time>
      </trkpt>
      <trkpt lat="45.27898" lon="0.41757">
        <ele>151</ele>
        <time>2016-02-24T13:42:30Z</time>
      </trkpt>
      <trkpt lat="45.27895" lon="0.41754">
        <ele>153</ele>
        <time>2016-02-24T13:42:36Z</time>
      </trkpt>
      <trkpt lat="45.2789" lon="0.41756">
        <ele>155</ele>
        <time>2016-02-24T13:42:41Z</time>
      </trkpt>
      <trkpt lat="45.27887" lon="0.41753">
        <ele>156</ele>
        <time>2016-02-24T13:42:45Z</time>
      </trkpt>
      <trkpt lat="45.27882" lon="0.41755">
        <ele>155</ele>
        <time>2016-02-24T13:42:49Z</time>
      </trkpt>
      <trkpt lat="45.27878" lon="0.41753">
        <ele>157</ele>
        <time>2016-02-24T13:43:16Z</time>
      </trkpt>
      <trkpt lat="45.27874" lon="0.41753">
        <ele>155</ele>
        <time>2016-02-24T13:43:40Z</time>
      </trkpt>
      <trkpt lat="45.2787" lon="0.41749">
        <ele>156</ele>
        <time>2016-02-24T13:43:44Z</time>
      </trkpt>
      <trkpt lat="45.27872" lon="0.41741">
        <ele>155</ele>
        <time>2016-02-24T13:43:49Z</time>
      </trkpt>
      <trkpt lat="45.27872" lon="0.41735">
        <ele>152</ele>
        <time>2016-02-24T13:43:53Z</time>
      </trkpt>
      <trkpt lat="45.27873" lon="0.41729">
        <ele>153</ele>
        <time>2016-02-24T13:44:00Z</time>
      </trkpt>
      <trkpt lat="45.27874" lon="0.4172">
        <ele>154</ele>
        <time>2016-02-24T13:44:05Z</time>
      </trkpt>
      <trkpt lat="45.27872" lon="0.41716">
        <ele>154</ele>
        <time>2016-02-24T13:44:09Z</time>
      </trkpt>
      <trkpt lat="45.27873" lon="0.41707">
        <ele>154</ele>
        <time>2016-02-24T13:44:14Z</time>
      </trkpt>
      <trkpt lat="45.27874" lon="0.41701">
        <ele>152</ele>
        <time>2016-02-24T13:44:19Z</time>
      </trkpt>
      <trkpt lat="45.27872" lon="0.41698">
        <ele>151</ele>
        <time>2016-02-24T13:44:23Z</time>
      </trkpt>
      <trkpt lat="45.27872" lon="0.41691">
        <ele>152</ele>
        <time>2016-02-24T13:44:27Z</time>
      </trkpt>
      <trkpt lat="45.27871" lon="0.41685">
        <ele>152</ele>
        <time>2016-02-24T13:44:31Z</time>
      </trkpt>
      <trkpt lat="45.27869" lon="0.41681">
        <ele>149</ele>
        <time>2016-02-24T13:44:35Z</time>
      </trkpt>
      <trkpt lat="45.27866" lon="0.41675">
        <ele>147</ele>
        <time>2016-02-24T13:44:39Z</time>
      </trkpt>
      <trkpt lat="45.27868" lon="0.41668">
        <ele>146</ele>
        <time>2016-02-24T13:44:44Z</time>
      </trkpt>
      <trkpt lat="45.27867" lon="0.41659">
        <ele>148</ele>
        <time>2016-02-24T13:44:48Z</time>
      </trkpt>
      <trkpt lat="45.27865" lon="0.41652">
        <ele>149</ele>
        <time>2016-02-24T13:44:52Z</time>
      </trkpt>
      <trkpt lat="45.27867" lon="0.41647">
        <ele>149</ele>
        <time>2016-02-24T13:44:56Z</time>
      </trkpt>
      <trkpt lat="45.27865" lon="0.41642">
        <ele>147</ele>
        <time>2016-02-24T13:45:03Z</time>
      </trkpt>
      <trkpt lat="45.27864" lon="0.41636">
        <ele>148</ele>
        <time>2016-02-24T13:45:07Z</time>
      </trkpt>
      <trkpt lat="45.27864" lon="0.41629">
        <ele>148</ele>
        <time>2016-02-24T13:45:12Z</time>
      </trkpt>
      <trkpt lat="45.27861" lon="0.41619">
        <ele>150</ele>
        <time>2016-02-24T13:45:17Z</time>
      </trkpt>
      <trkpt lat="45.2786" lon="0.41613">
        <ele>150</ele>
        <time>2016-02-24T13:45:21Z</time>
      </trkpt>
      <trkpt lat="45.2786" lon="0.41607">
        <ele>150</ele>
        <time>2016-02-24T13:45:26Z</time>
      </trkpt>
      <trkpt lat="45.2786" lon="0.41599">
        <ele>149</ele>
        <time>2016-02-24T13:45:31Z</time>
      </trkpt>
      <trkpt lat="45.27862" lon="0.41594">
        <ele>148</ele>
        <time>2016-02-24T13:45:35Z</time>
      </trkpt>
      <trkpt lat="45.2786" lon="0.41585">
        <ele>153</ele>
        <time>2016-02-24T13:45:40Z</time>
      </trkpt>
      <trkpt lat="45.27861" lon="0.41581">
        <ele>153</ele>
        <time>2016-02-24T13:45:46Z</time>
      </trkpt>
      <trkpt lat="45.27863" lon="0.41571">
        <ele>151</ele>
        <time>2016-02-24T13:45:51Z</time>
      </trkpt>
      <trkpt lat="45.27862" lon="0.41563">
        <ele>149</ele>
        <time>2016-02-24T13:45:55Z</time>
      </trkpt>
      <trkpt lat="45.2786" lon="0.41553">
        <ele>150</ele>
        <time>2016-02-24T13:45:59Z</time>
      </trkpt>
      <trkpt lat="45.2786" lon="0.41548">
        <ele>150</ele>
        <time>2016-02-24T13:46:03Z</time>
      </trkpt>
      <trkpt lat="45.27857" lon="0.41541">
        <ele>150</ele>
        <time>2016-02-24T13:46:08Z</time>
      </trkpt>
      <trkpt lat="45.27855" lon="0.41534">
        <ele>152</ele>
        <time>2016-02-24T13:46:13Z</time>
      </trkpt>
      <trkpt lat="45.27855" lon="0.41527">
        <ele>153</ele>
        <time>2016-02-24T13:46:17Z</time>
      </trkpt>
      <trkpt lat="45.27855" lon="0.41522">
        <ele>154</ele>
        <time>2016-02-24T13:46:21Z</time>
      </trkpt>
      <trkpt lat="45.27855" lon="0.41517">
        <ele>152</ele>
        <time>2016-02-24T13:46:25Z</time>
      </trkpt>
      <trkpt lat="45.27855" lon="0.41511">
        <ele>148</ele>
        <time>2016-02-24T13:46:30Z</time>
      </trkpt>
      <trkpt lat="45.27856" lon="0.41506">
        <ele>147</ele>
        <time>2016-02-24T13:46:36Z</time>
      </trkpt>
      <trkpt lat="45.27856" lon="0.41498">
        <ele>148</ele>
        <time>2016-02-24T13:46:41Z</time>
      </trkpt>
      <trkpt lat="45.27858" lon="0.41492">
        <ele>145</ele>
        <time>2016-02-24T13:46:45Z</time>
      </trkpt>
      <trkpt lat="45.27859" lon="0.41484">
        <ele>146</ele>
        <time>2016-02-24T13:46:50Z</time>
      </trkpt>
      <trkpt lat="45.27859" lon="0.4148">
        <ele>146</ele>
        <time>2016-02-24T13:46:54Z</time>
      </trkpt>
      <trkpt lat="45.27859" lon="0.4147">
        <ele>146</ele>
        <time>2016-02-24T13:46:59Z</time>
      </trkpt>
      <trkpt lat="45.27861" lon="0.41463">
        <ele>145</ele>
        <time>2016-02-24T13:47:04Z</time>
      </trkpt>
      <trkpt lat="45.27863" lon="0.41457">
        <ele>145</ele>
        <time>2016-02-24T13:47:08Z</time>
      </trkpt>
      <trkpt lat="45.27866" lon="0.41452">
        <ele>144</ele>
        <time>2016-02-24T13:47:13Z</time>
      </trkpt>
      <trkpt lat="45.27868" lon="0.41446">
        <ele>143</ele>
        <time>2016-02-24T13:47:17Z</time>
      </trkpt>
      <trkpt lat="45.27871" lon="0.41442">
        <ele>143</ele>
        <time>2016-02-24T13:47:21Z</time>
      </trkpt>
      <trkpt lat="45.27873" lon="0.41436">
        <ele>143</ele>
        <time>2016-02-24T13:47:25Z</time>
      </trkpt>
      <trkpt lat="45.27876" lon="0.41431">
        <ele>144</ele>
        <time>2016-02-24T13:47:30Z</time>
      </trkpt>
      <trkpt lat="45.27879" lon="0.4143">
        <ele>144</ele>
        <time>2016-02-24T13:47:34Z</time>
      </trkpt>
      <trkpt lat="45.27881" lon="0.41423">
        <ele>145</ele>
        <time>2016-02-24T13:47:38Z</time>
      </trkpt>
      <trkpt lat="45.27882" lon="0.41411">
        <ele>147</ele>
        <time>2016-02-24T13:47:43Z</time>
      </trkpt>
      <trkpt lat="45.27884" lon="0.41405">
        <ele>148</ele>
        <time>2016-02-24T13:47:47Z</time>
      </trkpt>
      <trkpt lat="45.27888" lon="0.414">
        <ele>148</ele>
        <time>2016-02-24T13:47:52Z</time>
      </trkpt>
      <trkpt lat="45.27891" lon="0.41395">
        <ele>147</ele>
        <time>2016-02-24T13:47:56Z</time>
      </trkpt>
      <trkpt lat="45.27893" lon="0.41387">
        <ele>147</ele>
        <time>2016-02-24T13:48:00Z</time>
      </trkpt>
      <trkpt lat="45.27897" lon="0.41386">
        <ele>148</ele>
        <time>2016-02-24T13:48:05Z</time>
      </trkpt>
      <trkpt lat="45.27901" lon="0.41383">
        <ele>148</ele>
        <time>2016-02-24T13:48:09Z</time>
      </trkpt>
      <trkpt lat="45.27902" lon="0.41377">
        <ele>146</ele>
        <time>2016-02-24T13:48:13Z</time>
      </trkpt>
      <trkpt lat="45.27905" lon="0.4137">
        <ele>145</ele>
        <time>2016-02-24T13:48:18Z</time>
      </trkpt>
      <trkpt lat="45.27904" lon="0.41364">
        <ele>146</ele>
        <time>2016-02-24T13:48:22Z</time>
      </trkpt>
      <trkpt lat="45.27905" lon="0.41358">
        <ele>144</ele>
        <time>2016-02-24T13:48:27Z</time>
      </trkpt>
      <trkpt lat="45.27906" lon="0.41352">
        <ele>143</ele>
        <time>2016-02-24T13:48:31Z</time>
      </trkpt>
      <trkpt lat="45.27908" lon="0.41347">
        <ele>141</ele>
        <time>2016-02-24T13:48:39Z</time>
      </trkpt>
      <trkpt lat="45.27911" lon="0.4134">
        <ele>140</ele>
        <time>2016-02-24T13:48:44Z</time>
      </trkpt>
      <trkpt lat="45.2791" lon="0.41331">
        <ele>140</ele>
        <time>2016-02-24T13:48:48Z</time>
      </trkpt>
      <trkpt lat="45.27908" lon="0.41322">
        <ele>142</ele>
        <time>2016-02-24T13:48:52Z</time>
      </trkpt>
      <trkpt lat="45.27905" lon="0.41318">
        <ele>144</ele>
        <time>2016-02-24T13:48:56Z</time>
      </trkpt>
      <trkpt lat="45.27904" lon="0.41312">
        <ele>143</ele>
        <time>2016-02-24T13:49:01Z</time>
      </trkpt>
      <trkpt lat="45.27904" lon="0.41306">
        <ele>143</ele>
        <time>2016-02-24T13:49:07Z</time>
      </trkpt>
      <trkpt lat="45.27901" lon="0.41298">
        <ele>144</ele>
        <time>2016-02-24T13:49:12Z</time>
      </trkpt>
      <trkpt lat="45.27898" lon="0.41292">
        <ele>140</ele>
        <time>2016-02-24T13:49:16Z</time>
      </trkpt>
      <trkpt lat="45.27898" lon="0.41286">
        <ele>137</ele>
        <time>2016-02-24T13:49:23Z</time>
      </trkpt>
      <trkpt lat="45.27896" lon="0.41279">
        <ele>136</ele>
        <time>2016-02-24T13:49:28Z</time>
      </trkpt>
      <trkpt lat="45.27898" lon="0.41274">
        <ele>137</ele>
        <time>2016-02-24T13:49:33Z</time>
      </trkpt>
      <trkpt lat="45.27897" lon="0.41268">
        <ele>135</ele>
        <time>2016-02-24T13:49:38Z</time>
      </trkpt>
      <trkpt lat="45.27895" lon="0.41257">
        <ele>136</ele>
        <time>2016-02-24T13:49:43Z</time>
      </trkpt>
      <trkpt lat="45.27894" lon="0.41249">
        <ele>137</ele>
        <time>2016-02-24T13:49:47Z</time>
      </trkpt>
      <trkpt lat="45.27892" lon="0.41242">
        <ele>138</ele>
        <time>2016-02-24T13:49:52Z</time>
      </trkpt>
      <trkpt lat="45.27889" lon="0.41234">
        <ele>138</ele>
        <time>2016-02-24T13:49:56Z</time>
      </trkpt>
      <trkpt lat="45.27891" lon="0.4123">
        <ele>137</ele>
        <time>2016-02-24T13:50:00Z</time>
      </trkpt>
      <trkpt lat="45.2789" lon="0.41224">
        <ele>137</ele>
        <time>2016-02-24T13:50:05Z</time>
      </trkpt>
      <trkpt lat="45.27889" lon="0.41216">
        <ele>136</ele>
        <time>2016-02-24T13:50:09Z</time>
      </trkpt>
      <trkpt lat="45.27888" lon="0.41207">
        <ele>135</ele>
        <time>2016-02-24T13:50:14Z</time>
      </trkpt>
      <trkpt lat="45.27887" lon="0.41198">
        <ele>135</ele>
        <time>2016-02-24T13:50:19Z</time>
      </trkpt>
      <trkpt lat="45.27888" lon="0.41193">
        <ele>134</ele>
        <time>2016-02-24T13:50:24Z</time>
      </trkpt>
      <trkpt lat="45.27886" lon="0.41186">
        <ele>136</ele>
        <time>2016-02-24T13:50:28Z</time>
      </trkpt>
      <trkpt lat="45.27886" lon="0.4118">
        <ele>135</ele>
        <time>2016-02-24T13:50:32Z</time>
      </trkpt>
      <trkpt lat="45.27885" lon="0.41175">
        <ele>134</ele>
        <time>2016-02-24T13:50:37Z</time>
      </trkpt>
      <trkpt lat="45.27883" lon="0.41167">
        <ele>131</ele>
        <time>2016-02-24T13:50:42Z</time>
      </trkpt>
      <trkpt lat="45.27881" lon="0.41162">
        <ele>130</ele>
        <time>2016-02-24T13:50:55Z</time>
      </trkpt>
      <trkpt lat="45.27877" lon="0.41155">
        <ele>130</ele>
        <time>2016-02-24T13:50:59Z</time>
      </trkpt>
      <trkpt lat="45.27875" lon="0.4115">
        <ele>132</ele>
        <time>2016-02-24T13:51:03Z</time>
      </trkpt>
      <trkpt lat="45.27873" lon="0.41145">
        <ele>131</ele>
        <time>2016-02-24T13:51:08Z</time>
      </trkpt>
      <trkpt lat="45.27868" lon="0.41139">
        <ele>132</ele>
        <time>2016-02-24T13:51:12Z</time>
      </trkpt>
      <trkpt lat="45.27864" lon="0.41133">
        <ele>131</ele>
        <time>2016-02-24T13:51:17Z</time>
      </trkpt>
      <trkpt lat="45.27863" lon="0.41126">
        <ele>131</ele>
        <time>2016-02-24T13:51:21Z</time>
      </trkpt>
      <trkpt lat="45.2786" lon="0.41121">
        <ele>136</ele>
        <time>2016-02-24T13:51:26Z</time>
      </trkpt>
      <trkpt lat="45.27857" lon="0.41117">
        <ele>133</ele>
        <time>2016-02-24T13:51:31Z</time>
      </trkpt>
      <trkpt lat="45.27854" lon="0.41111">
        <ele>131</ele>
        <time>2016-02-24T13:51:36Z</time>
      </trkpt>
      <trkpt lat="45.27852" lon="0.41107">
        <ele>128</ele>
        <time>2016-02-24T13:51:40Z</time>
      </trkpt>
      <trkpt lat="45.2785" lon="0.41102">
        <ele>129</ele>
        <time>2016-02-24T13:51:44Z</time>
      </trkpt>
      <trkpt lat="45.27849" lon="0.41097">
        <ele>129</ele>
        <time>2016-02-24T13:51:48Z</time>
      </trkpt>
      <trkpt lat="45.27845" lon="0.4109">
        <ele>128</ele>
        <time>2016-02-24T13:51:53Z</time>
      </trkpt>
      <trkpt lat="45.27845" lon="0.41084">
        <ele>127</ele>
        <time>2016-02-24T13:51:57Z</time>
      </trkpt>
      <trkpt lat="45.27842" lon="0.41076">
        <ele>129</ele>
        <time>2016-02-24T13:52:01Z</time>
      </trkpt>
      <trkpt lat="45.2784" lon="0.41071">
        <ele>128</ele>
        <time>2016-02-24T13:52:06Z</time>
      </trkpt>
      <trkpt lat="45.27837" lon="0.41064">
        <ele>127</ele>
        <time>2016-02-24T13:52:10Z</time>
      </trkpt>
      <trkpt lat="45.27835" lon="0.41059">
        <ele>130</ele>
        <time>2016-02-24T13:52:14Z</time>
      </trkpt>
      <trkpt lat="45.27833" lon="0.41052">
        <ele>130</ele>
        <time>2016-02-24T13:52:19Z</time>
      </trkpt>
      <trkpt lat="45.27829" lon="0.41047">
        <ele>129</ele>
        <time>2016-02-24T13:52:23Z</time>
      </trkpt>
      <trkpt lat="45.27826" lon="0.41044">
        <ele>132</ele>
        <time>2016-02-24T13:52:27Z</time>
      </trkpt>
      <trkpt lat="45.27824" lon="0.41038">
        <ele>135</ele>
        <time>2016-02-24T13:52:32Z</time>
      </trkpt>
      <trkpt lat="45.2782" lon="0.4103">
        <ele>135</ele>
        <time>2016-02-24T13:52:36Z</time>
      </trkpt>
      <trkpt lat="45.27818" lon="0.41026">
        <ele>130</ele>
        <time>2016-02-24T13:52:43Z</time>
      </trkpt>
      <trkpt lat="45.27814" lon="0.4102">
        <ele>132</ele>
        <time>2016-02-24T13:52:47Z</time>
      </trkpt>
      <trkpt lat="45.2781" lon="0.41012">
        <ele>134</ele>
        <time>2016-02-24T13:52:52Z</time>
      </trkpt>
      <trkpt lat="45.27807" lon="0.41007">
        <ele>133</ele>
        <time>2016-02-24T13:52:58Z</time>
      </trkpt>
      <trkpt lat="45.27805" lon="0.41002">
        <ele>134</ele>
        <time>2016-02-24T13:53:03Z</time>
      </trkpt>
      <trkpt lat="45.27801" lon="0.40997">
        <ele>137</ele>
        <time>2016-02-24T13:53:07Z</time>
      </trkpt>
      <trkpt lat="45.278" lon="0.40991">
        <ele>136</ele>
        <time>2016-02-24T13:53:12Z</time>
      </trkpt>
      <trkpt lat="45.27796" lon="0.40985">
        <ele>133</ele>
        <time>2016-02-24T13:53:16Z</time>
      </trkpt>
      <trkpt lat="45.27794" lon="0.40981">
        <ele>131</ele>
        <time>2016-02-24T13:53:20Z</time>
      </trkpt>
      <trkpt lat="45.27792" lon="0.40977">
        <ele>130</ele>
        <time>2016-02-24T13:53:24Z</time>
      </trkpt>
      <trkpt lat="45.27789" lon="0.4097">
        <ele>131</ele>
        <time>2016-02-24T13:53:29Z</time>
      </trkpt>
      <trkpt lat="45.27785" lon="0.40966">
        <ele>131</ele>
        <time>2016-02-24T13:53:33Z</time>
      </trkpt>
      <trkpt lat="45.27781" lon="0.40958">
        <ele>131</ele>
        <time>2016-02-24T13:53:38Z</time>
      </trkpt>
      <trkpt lat="45.27779" lon="0.40952">
        <ele>134</ele>
        <time>2016-02-24T13:53:43Z</time>
      </trkpt>
      <trkpt lat="45.27774" lon="0.40949">
        <ele>131</ele>
        <time>2016-02-24T13:53:48Z</time>
      </trkpt>
      <trkpt lat="45.27769" lon="0.40945">
        <ele>132</ele>
        <time>2016-02-24T13:53:53Z</time>
      </trkpt>
      <trkpt lat="45.27767" lon="0.40938">
        <ele>132</ele>
        <time>2016-02-24T13:53:57Z</time>
      </trkpt>
      <trkpt lat="45.27763" lon="0.40936">
        <ele>133</ele>
        <time>2016-02-24T13:54:01Z</time>
      </trkpt>
      <trkpt lat="45.27761" lon="0.40929">
        <ele>128</ele>
        <time>2016-02-24T13:54:06Z</time>
      </trkpt>
      <trkpt lat="45.27757" lon="0.40927">
        <ele>127</ele>
        <time>2016-02-24T13:54:10Z</time>
      </trkpt>
      <trkpt lat="45.27754" lon="0.40922">
        <ele>129</ele>
        <time>2016-02-24T13:54:14Z</time>
      </trkpt>
      <trkpt lat="45.27749" lon="0.40917">
        <ele>130</ele>
        <time>2016-02-24T13:54:19Z</time>
      </trkpt>
      <trkpt lat="45.27743" lon="0.40913">
        <ele>125</ele>
        <time>2016-02-24T13:54:24Z</time>
      </trkpt>
      <trkpt lat="45.27739" lon="0.40907">
        <ele>124</ele>
        <time>2016-02-24T13:54:29Z</time>
      </trkpt>
      <trkpt lat="45.27735" lon="0.40902">
        <ele>124</ele>
        <time>2016-02-24T13:54:33Z</time>
      </trkpt>
      <trkpt lat="45.27731" lon="0.40899">
        <ele>124</ele>
        <time>2016-02-24T13:54:38Z</time>
      </trkpt>
      <trkpt lat="45.2773" lon="0.40889">
        <ele>125</ele>
        <time>2016-02-24T13:54:43Z</time>
      </trkpt>
      <trkpt lat="45.27727" lon="0.40884">
        <ele>127</ele>
        <time>2016-02-24T13:54:48Z</time>
      </trkpt>
      <trkpt lat="45.27724" lon="0.40886">
        <ele>125</ele>
        <time>2016-02-24T13:55:06Z</time>
      </trkpt>
      <trkpt lat="45.27722" lon="0.40881">
        <ele>123</ele>
        <time>2016-02-24T13:55:42Z</time>
      </trkpt>
      <trkpt lat="45.27722" lon="0.40873">
        <ele>123</ele>
        <time>2016-02-24T13:55:46Z</time>
      </trkpt>
      <trkpt lat="45.27724" lon="0.40867">
        <ele>122</ele>
        <time>2016-02-24T13:55:50Z</time>
      </trkpt>
      <trkpt lat="45.27721" lon="0.40862">
        <ele>122</ele>
        <time>2016-02-24T13:55:55Z</time>
      </trkpt>
      <trkpt lat="45.27717" lon="0.40858">
        <ele>120</ele>
        <time>2016-02-24T13:56:00Z</time>
      </trkpt>
      <trkpt lat="45.27713" lon="0.40856">
        <ele>120</ele>
        <time>2016-02-24T13:56:04Z</time>
      </trkpt>
      <trkpt lat="45.27716" lon="0.40853">
        <ele>117</ele>
        <time>2016-02-24T13:56:32Z</time>
      </trkpt>
      <trkpt lat="45.2772" lon="0.40852">
        <ele>120</ele>
        <time>2016-02-24T14:00:04Z</time>
      </trkpt>
      <trkpt lat="45.2772" lon="0.40847">
        <ele>120</ele>
        <time>2016-02-24T14:00:13Z</time>
      </trkpt>
      <trkpt lat="45.27718" lon="0.4084">
        <ele>122</ele>
        <time>2016-02-24T14:00:17Z</time>
      </trkpt>
      <trkpt lat="45.27717" lon="0.40835">
        <ele>124</ele>
        <time>2016-02-24T14:00:25Z</time>
      </trkpt>
      <trkpt lat="45.27715" lon="0.40828">
        <ele>125</ele>
        <time>2016-02-24T14:00:29Z</time>
      </trkpt>
      <trkpt lat="45.27712" lon="0.40824">
        <ele>127</ele>
        <time>2016-02-24T14:00:33Z</time>
      </trkpt>
      <trkpt lat="45.27709" lon="0.40821">
        <ele>125</ele>
        <time>2016-02-24T14:00:38Z</time>
      </trkpt>
      <trkpt lat="45.27708" lon="0.40816">
        <ele>125</ele>
        <time>2016-02-24T14:00:43Z</time>
      </trkpt>
      <trkpt lat="45.27704" lon="0.4081">
        <ele>128</ele>
        <time>2016-02-24T14:00:47Z</time>
      </trkpt>
      <trkpt lat="45.27701" lon="0.40807">
        <ele>127</ele>
        <time>2016-02-24T14:00:51Z</time>
      </trkpt>
      <trkpt lat="45.27698" lon="0.40803">
        <ele>128</ele>
        <time>2016-02-24T14:00:55Z</time>
      </trkpt>
      <trkpt lat="45.27695" lon="0.40799">
        <ele>127</ele>
        <time>2016-02-24T14:00:59Z</time>
      </trkpt>
      <trkpt lat="45.27691" lon="0.40794">
        <ele>127</ele>
        <time>2016-02-24T14:01:04Z</time>
      </trkpt>
      <trkpt lat="45.27688" lon="0.40792">
        <ele>126</ele>
        <time>2016-02-24T14:01:08Z</time>
      </trkpt>
      <trkpt lat="45.27684" lon="0.40789">
        <ele>126</ele>
        <time>2016-02-24T14:01:12Z</time>
      </trkpt>
      <trkpt lat="45.27679" lon="0.40786">
        <ele>127</ele>
        <time>2016-02-24T14:01:17Z</time>
      </trkpt>
      <trkpt lat="45.27675" lon="0.40781">
        <ele>127</ele>
        <time>2016-02-24T14:01:21Z</time>
      </trkpt>
      <trkpt lat="45.27672" lon="0.40777">
        <ele>124</ele>
        <time>2016-02-24T14:01:27Z</time>
      </trkpt>
      <trkpt lat="45.27668" lon="0.40772">
        <ele>123</ele>
        <time>2016-02-24T14:01:32Z</time>
      </trkpt>
      <trkpt lat="45.27664" lon="0.4077">
        <ele>122</ele>
        <time>2016-02-24T14:01:36Z</time>
      </trkpt>
      <trkpt lat="45.27661" lon="0.40765">
        <ele>121</ele>
        <time>2016-02-24T14:01:41Z</time>
      </trkpt>
      <trkpt lat="45.27659" lon="0.40758">
        <ele>121</ele>
        <time>2016-02-24T14:01:45Z</time>
      </trkpt>
      <trkpt lat="45.27657" lon="0.40754">
        <ele>122</ele>
        <time>2016-02-24T14:01:50Z</time>
      </trkpt>
      <trkpt lat="45.27656" lon="0.40747">
        <ele>122</ele>
        <time>2016-02-24T14:01:55Z</time>
      </trkpt>
      <trkpt lat="45.27653" lon="0.40738">
        <ele>124</ele>
        <time>2016-02-24T14:02:00Z</time>
      </trkpt>
      <trkpt lat="45.27651" lon="0.40733">
        <ele>124</ele>
        <time>2016-02-24T14:02:04Z</time>
      </trkpt>
      <trkpt lat="45.27649" lon="0.40728">
        <ele>123</ele>
        <time>2016-02-24T14:02:09Z</time>
      </trkpt>
      <trkpt lat="45.27646" lon="0.40724">
        <ele>121</ele>
        <time>2016-02-24T14:02:13Z</time>
      </trkpt>
      <trkpt lat="45.27643" lon="0.40718">
        <ele>122</ele>
        <time>2016-02-24T14:02:17Z</time>
      </trkpt>
      <trkpt lat="45.27638" lon="0.40714">
        <ele>121</ele>
        <time>2016-02-24T14:02:22Z</time>
      </trkpt>
      <trkpt lat="45.27634" lon="0.40709">
        <ele>122</ele>
        <time>2016-02-24T14:02:27Z</time>
      </trkpt>
      <trkpt lat="45.2763" lon="0.40704">
        <ele>121</ele>
        <time>2016-02-24T14:02:31Z</time>
      </trkpt>
      <trkpt lat="45.27626" lon="0.407">
        <ele>122</ele>
        <time>2016-02-24T14:02:36Z</time>
      </trkpt>
      <trkpt lat="45.27621" lon="0.40697">
        <ele>123</ele>
        <time>2016-02-24T14:02:41Z</time>
      </trkpt>
      <trkpt lat="45.27618" lon="0.40689">
        <ele>123</ele>
        <time>2016-02-24T14:02:45Z</time>
      </trkpt>
      <trkpt lat="45.27614" lon="0.40687">
        <ele>123</ele>
        <time>2016-02-24T14:02:49Z</time>
      </trkpt>
      <trkpt lat="45.27608" lon="0.40685">
        <ele>123</ele>
        <time>2016-02-24T14:02:54Z</time>
      </trkpt>
      <trkpt lat="45.27605" lon="0.40678">
        <ele>120</ele>
        <time>2016-02-24T14:02:59Z</time>
      </trkpt>
      <trkpt lat="45.27603" lon="0.40673">
        <ele>119</ele>
        <time>2016-02-24T14:03:09Z</time>
      </trkpt>
      <trkpt lat="45.27599" lon="0.40669">
        <ele>119</ele>
        <time>2016-02-24T14:03:14Z</time>
      </trkpt>
      <trkpt lat="45.27596" lon="0.40664">
        <ele>118</ele>
        <time>2016-02-24T14:03:18Z</time>
      </trkpt>
      <trkpt lat="45.27592" lon="0.40661">
        <ele>118</ele>
        <time>2016-02-24T14:03:22Z</time>
      </trkpt>
      <trkpt lat="45.27589" lon="0.40657">
        <ele>118</ele>
        <time>2016-02-24T14:03:26Z</time>
      </trkpt>
      <trkpt lat="45.27586" lon="0.4065">
        <ele>117</ele>
        <time>2016-02-24T14:03:30Z</time>
      </trkpt>
      <trkpt lat="45.27579" lon="0.40648">
        <ele>119</ele>
        <time>2016-02-24T14:03:35Z</time>
      </trkpt>
      <trkpt lat="45.27575" lon="0.40642">
        <ele>119</ele>
        <time>2016-02-24T14:03:40Z</time>
      </trkpt>
      <trkpt lat="45.27571" lon="0.40638">
        <ele>123</ele>
        <time>2016-02-24T14:03:44Z</time>
      </trkpt>
      <trkpt lat="45.27567" lon="0.40633">
        <ele>123</ele>
        <time>2016-02-24T14:03:49Z</time>
      </trkpt>
      <trkpt lat="45.27563" lon="0.40629">
        <ele>123</ele>
        <time>2016-02-24T14:03:53Z</time>
      </trkpt>
      <trkpt lat="45.27559" lon="0.40625">
        <ele>121</ele>
        <time>2016-02-24T14:03:57Z</time>
      </trkpt>
      <trkpt lat="45.27557" lon="0.4062">
        <ele>122</ele>
        <time>2016-02-24T14:04:01Z</time>
      </trkpt>
      <trkpt lat="45.27552" lon="0.40616">
        <ele>121</ele>
        <time>2016-02-24T14:04:06Z</time>
      </trkpt>
      <trkpt lat="45.27549" lon="0.40611">
        <ele>121</ele>
        <time>2016-02-24T14:04:10Z</time>
      </trkpt>
      <trkpt lat="45.27543" lon="0.40609">
        <ele>122</ele>
        <time>2016-02-24T14:04:14Z</time>
      </trkpt>
      <trkpt lat="45.2754" lon="0.40603">
        <ele>123</ele>
        <time>2016-02-24T14:04:19Z</time>
      </trkpt>
      <trkpt lat="45.27538" lon="0.40597">
        <ele>115</ele>
        <time>2016-02-24T14:04:25Z</time>
      </trkpt>
      <trkpt lat="45.27536" lon="0.40589">
        <ele>116</ele>
        <time>2016-02-24T14:04:29Z</time>
      </trkpt>
      <trkpt lat="45.2753" lon="0.40587">
        <ele>116</ele>
        <time>2016-02-24T14:04:34Z</time>
      </trkpt>
      <trkpt lat="45.27528" lon="0.40582">
        <ele>114</ele>
        <time>2016-02-24T14:04:38Z</time>
      </trkpt>
      <trkpt lat="45.27524" lon="0.4058">
        <ele>114</ele>
        <time>2016-02-24T14:04:42Z</time>
      </trkpt>
      <trkpt lat="45.2752" lon="0.40577">
        <ele>114</ele>
        <time>2016-02-24T14:04:46Z</time>
      </trkpt>
      <trkpt lat="45.27516" lon="0.40574">
        <ele>114</ele>
        <time>2016-02-24T14:04:50Z</time>
      </trkpt>
      <trkpt lat="45.27512" lon="0.40571">
        <ele>113</ele>
        <time>2016-02-24T14:04:55Z</time>
      </trkpt>
      <trkpt lat="45.27509" lon="0.40566">
        <ele>114</ele>
        <time>2016-02-24T14:04:59Z</time>
      </trkpt>
      <trkpt lat="45.27504" lon="0.40562">
        <ele>115</ele>
        <time>2016-02-24T14:05:04Z</time>
      </trkpt>
      <trkpt lat="45.275" lon="0.40561">
        <ele>116</ele>
        <time>2016-02-24T14:05:08Z</time>
      </trkpt>
      <trkpt lat="45.27496" lon="0.40559">
        <ele>114</ele>
        <time>2016-02-24T14:05:13Z</time>
      </trkpt>
      <trkpt lat="45.27494" lon="0.40556">
        <ele>115</ele>
        <time>2016-02-24T14:05:17Z</time>
      </trkpt>
      <trkpt lat="45.2749" lon="0.40551">
        <ele>112</ele>
        <time>2016-02-24T14:05:21Z</time>
      </trkpt>
      <trkpt lat="45.27488" lon="0.40546">
        <ele>111</ele>
        <time>2016-02-24T14:05:27Z</time>
      </trkpt>
      <trkpt lat="45.27484" lon="0.40543">
        <ele>107</ele>
        <time>2016-02-24T14:05:51Z</time>
      </trkpt>
      <trkpt lat="45.27481" lon="0.40539">
        <ele>107</ele>
        <time>2016-02-24T14:06:01Z</time>
      </trkpt>
      <trkpt lat="45.27478" lon="0.40535">
        <ele>109</ele>
        <time>2016-02-24T14:06:08Z</time>
      </trkpt>
      <trkpt lat="45.27475" lon="0.4053">
        <ele>110</ele>
        <time>2016-02-24T14:06:15Z</time>
      </trkpt>
      <trkpt lat="45.27471" lon="0.40528">
        <ele>103</ele>
        <time>2016-02-24T14:07:35Z</time>
      </trkpt>
      <trkpt lat="45.27467" lon="0.40525">
        <ele>102</ele>
        <time>2016-02-24T14:07:41Z</time>
      </trkpt>
      <trkpt lat="45.27463" lon="0.4052">
        <ele>105</ele>
        <time>2016-02-24T14:07:46Z</time>
      </trkpt>
      <trkpt lat="45.27459" lon="0.40516">
        <ele>106</ele>
        <time>2016-02-24T14:07:50Z</time>
      </trkpt>
      <trkpt lat="45.27457" lon="0.40511">
        <ele>108</ele>
        <time>2016-02-24T14:07:57Z</time>
      </trkpt>
      <trkpt lat="45.27454" lon="0.40507">
        <ele>107</ele>
        <time>2016-02-24T14:08:02Z</time>
      </trkpt>
      <trkpt lat="45.2745" lon="0.40502">
        <ele>106</ele>
        <time>2016-02-24T14:08:07Z</time>
      </trkpt>
      <trkpt lat="45.2745" lon="0.40496">
        <ele>105</ele>
        <time>2016-02-24T14:08:22Z</time>
      </trkpt>
      <trkpt lat="45.27448" lon="0.40492">
        <ele>104</ele>
        <time>2016-02-24T14:08:26Z</time>
      </trkpt>
      <trkpt lat="45.27444" lon="0.4049">
        <ele>103</ele>
        <time>2016-02-24T14:08:31Z</time>
      </trkpt>
      <trkpt lat="45.27441" lon="0.40486">
        <ele>97</ele>
        <time>2016-02-24T14:08:49Z</time>
      </trkpt>
      <trkpt lat="45.27437" lon="0.40486">
        <ele>99</ele>
        <time>2016-02-24T14:08:53Z</time>
      </trkpt>
      <trkpt lat="45.27431" lon="0.40489">
        <ele>100</ele>
        <time>2016-02-24T14:08:57Z</time>
      </trkpt>
      <trkpt lat="45.27428" lon="0.40491">
        <ele>101</ele>
        <time>2016-02-24T14:09:03Z</time>
      </trkpt>
      <trkpt lat="45.27424" lon="0.40498">
        <ele>102</ele>
        <time>2016-02-24T14:09:08Z</time>
      </trkpt>
      <trkpt lat="45.2742" lon="0.40503">
        <ele>102</ele>
        <time>2016-02-24T14:09:12Z</time>
      </trkpt>
      <trkpt lat="45.27417" lon="0.40507">
        <ele>102</ele>
        <time>2016-02-24T14:09:16Z</time>
      </trkpt>
      <trkpt lat="45.27415" lon="0.40511">
        <ele>99</ele>
        <time>2016-02-24T14:09:23Z</time>
      </trkpt>
      <trkpt lat="45.2741" lon="0.40518">
        <ele>101</ele>
        <time>2016-02-24T14:09:27Z</time>
      </trkpt>
      <trkpt lat="45.27405" lon="0.40524">
        <ele>102</ele>
        <time>2016-02-24T14:09:31Z</time>
      </trkpt>
      <trkpt lat="45.27402" lon="0.40529">
        <ele>102</ele>
        <time>2016-02-24T14:09:36Z</time>
      </trkpt>
      <trkpt lat="45.27398" lon="0.40532">
        <ele>103</ele>
        <time>2016-02-24T14:09:40Z</time>
      </trkpt>
      <trkpt lat="45.27401" lon="0.40527">
        <ele>104</ele>
        <time>2016-02-24T14:10:10Z</time>
      </trkpt>
      <trkpt lat="45.27405" lon="0.40525">
        <ele>104</ele>
        <time>2016-02-24T14:10:28Z</time>
      </trkpt>
      <trkpt lat="45.27406" lon="0.4052">
        <ele>105</ele>
        <time>2016-02-24T14:10:32Z</time>
      </trkpt>
      <trkpt lat="45.27409" lon="0.40515">
        <ele>105</ele>
        <time>2016-02-24T14:10:37Z</time>
      </trkpt>
      <trkpt lat="45.27413" lon="0.40512">
        <ele>104</ele>
        <time>2016-02-24T14:10:42Z</time>
      </trkpt>
      <trkpt lat="45.27416" lon="0.4051">
        <ele>102</ele>
        <time>2016-02-24T14:10:49Z</time>
      </trkpt>
      <trkpt lat="45.2742" lon="0.40506">
        <ele>100</ele>
        <time>2016-02-24T14:10:55Z</time>
      </trkpt>
      <trkpt lat="45.27424" lon="0.40503">
        <ele>103</ele>
        <time>2016-02-24T14:10:59Z</time>
      </trkpt>
      <trkpt lat="45.27428" lon="0.40499">
        <ele>103</ele>
        <time>2016-02-24T14:11:04Z</time>
      </trkpt>
      <trkpt lat="45.27431" lon="0.40495">
        <ele>103</ele>
        <time>2016-02-24T14:11:10Z</time>
      </trkpt>
      <trkpt lat="45.27432" lon="0.40491">
        <ele>104</ele>
        <time>2016-02-24T14:11:16Z</time>
      </trkpt>
      <trkpt lat="45.27435" lon="0.40486">
        <ele>102</ele>
        <time>2016-02-24T14:11:21Z</time>
      </trkpt>
      <trkpt lat="45.27438" lon="0.40481">
        <ele>102</ele>
        <time>2016-02-24T14:11:27Z</time>
      </trkpt>
      <trkpt lat="45.2744" lon="0.40477">
        <ele>102</ele>
        <time>2016-02-24T14:11:32Z</time>
      </trkpt>
      <trkpt lat="45.2744" lon="0.40483">
        <ele>101</ele>
        <time>2016-02-24T14:11:40Z</time>
      </trkpt>
      <trkpt lat="45.27444" lon="0.4048">
        <ele>100</ele>
        <time>2016-02-24T14:11:59Z</time>
      </trkpt>
      <trkpt lat="45.27448" lon="0.40478">
        <ele>98</ele>
        <time>2016-02-24T14:12:05Z</time>
      </trkpt>
      <trkpt lat="45.27452" lon="0.40475">
        <ele>98</ele>
        <time>2016-02-24T14:12:10Z</time>
      </trkpt>
      <trkpt lat="45.27455" lon="0.40472">
        <ele>97</ele>
        <time>2016-02-24T14:12:15Z</time>
      </trkpt>
      <trkpt lat="45.27459" lon="0.4047">
        <ele>95</ele>
        <time>2016-02-24T14:12:20Z</time>
      </trkpt>
      <trkpt lat="45.27463" lon="0.40465">
        <ele>96</ele>
        <time>2016-02-24T14:12:24Z</time>
      </trkpt>
      <trkpt lat="45.27466" lon="0.40469">
        <ele>93</ele>
        <time>2016-02-24T14:12:29Z</time>
      </trkpt>
      <trkpt lat="45.27469" lon="0.40467">
        <ele>92</ele>
        <time>2016-02-24T14:12:33Z</time>
      </trkpt>
      <trkpt lat="45.27474" lon="0.40458">
        <ele>96</ele>
        <time>2016-02-24T14:12:38Z</time>
      </trkpt>
      <trkpt lat="45.27477" lon="0.40462">
        <ele>96</ele>
        <time>2016-02-24T14:12:46Z</time>
      </trkpt>
      <trkpt lat="45.2748" lon="0.40458">
        <ele>96</ele>
        <time>2016-02-24T14:12:51Z</time>
      </trkpt>
      <trkpt lat="45.27487" lon="0.40442">
        <ele>100</ele>
        <time>2016-02-24T14:12:56Z</time>
      </trkpt>
      <trkpt lat="45.27491" lon="0.40442">
        <ele>100</ele>
        <time>2016-02-24T14:13:02Z</time>
      </trkpt>
      <trkpt lat="45.27496" lon="0.40438">
        <ele>99</ele>
        <time>2016-02-24T14:13:07Z</time>
      </trkpt>
      <trkpt lat="45.27499" lon="0.40436">
        <ele>98</ele>
        <time>2016-02-24T14:13:12Z</time>
      </trkpt>
      <trkpt lat="45.27503" lon="0.40433">
        <ele>98</ele>
        <time>2016-02-24T14:13:17Z</time>
      </trkpt>
      <trkpt lat="45.27508" lon="0.40434">
        <ele>96</ele>
        <time>2016-02-24T14:13:22Z</time>
      </trkpt>
      <trkpt lat="45.27512" lon="0.40434">
        <ele>95</ele>
        <time>2016-02-24T14:13:26Z</time>
      </trkpt>
      <trkpt lat="45.27515" lon="0.40429">
        <ele>95</ele>
        <time>2016-02-24T14:13:30Z</time>
      </trkpt>
      <trkpt lat="45.27519" lon="0.40431">
        <ele>93</ele>
        <time>2016-02-24T14:13:36Z</time>
      </trkpt>
      <trkpt lat="45.27522" lon="0.40428">
        <ele>91</ele>
        <time>2016-02-24T14:13:40Z</time>
      </trkpt>
      <trkpt lat="45.27526" lon="0.40425">
        <ele>90</ele>
        <time>2016-02-24T14:13:44Z</time>
      </trkpt>
      <trkpt lat="45.27531" lon="0.40423">
        <ele>91</ele>
        <time>2016-02-24T14:13:48Z</time>
      </trkpt>
      <trkpt lat="45.27535" lon="0.40419">
        <ele>92</ele>
        <time>2016-02-24T14:13:52Z</time>
      </trkpt>
      <trkpt lat="45.27539" lon="0.4042">
        <ele>90</ele>
        <time>2016-02-24T14:13:57Z</time>
      </trkpt>
      <trkpt lat="45.27545" lon="0.40412">
        <ele>89</ele>
        <time>2016-02-24T14:14:02Z</time>
      </trkpt>
      <trkpt lat="45.27551" lon="0.40411">
        <ele>90</ele>
        <time>2016-02-24T14:14:07Z</time>
      </trkpt>
      <trkpt lat="45.27554" lon="0.4041">
        <ele>90</ele>
        <time>2016-02-24T14:14:12Z</time>
      </trkpt>
      <trkpt lat="45.27558" lon="0.40411">
        <ele>87</ele>
        <time>2016-02-24T14:14:17Z</time>
      </trkpt>
      <trkpt lat="45.27564" lon="0.40408">
        <ele>88</ele>
        <time>2016-02-24T14:14:22Z</time>
      </trkpt>
      <trkpt lat="45.27568" lon="0.40407">
        <ele>87</ele>
        <time>2016-02-24T14:14:26Z</time>
      </trkpt>
      <trkpt lat="45.27573" lon="0.40406">
        <ele>85</ele>
        <time>2016-02-24T14:14:31Z</time>
      </trkpt>
      <trkpt lat="45.27577" lon="0.40404">
        <ele>83</ele>
        <time>2016-02-24T14:14:35Z</time>
      </trkpt>
      <trkpt lat="45.27581" lon="0.40403">
        <ele>82</ele>
        <time>2016-02-24T14:14:41Z</time>
      </trkpt>
      <trkpt lat="45.27584" lon="0.404">
        <ele>82</ele>
        <time>2016-02-24T14:14:45Z</time>
      </trkpt>
      <trkpt lat="45.27589" lon="0.404">
        <ele>82</ele>
        <time>2016-02-24T14:14:50Z</time>
      </trkpt>
      <trkpt lat="45.27594" lon="0.40399">
        <ele>84</ele>
        <time>2016-02-24T14:14:55Z</time>
      </trkpt>
      <trkpt lat="45.27597" lon="0.40399">
        <ele>84</ele>
        <time>2016-02-24T14:15:00Z</time>
      </trkpt>
      <trkpt lat="45.27601" lon="0.40401">
        <ele>83</ele>
        <time>2016-02-24T14:15:04Z</time>
      </trkpt>
      <trkpt lat="45.27606" lon="0.40404">
        <ele>83</ele>
        <time>2016-02-24T14:15:09Z</time>
      </trkpt>
      <trkpt lat="45.27611" lon="0.40402">
        <ele>84</ele>
        <time>2016-02-24T14:15:13Z</time>
      </trkpt>
      <trkpt lat="45.27617" lon="0.404">
        <ele>86</ele>
        <time>2016-02-24T14:15:18Z</time>
      </trkpt>
      <trkpt lat="45.27622" lon="0.40394">
        <ele>89</ele>
        <time>2016-02-24T14:15:22Z</time>
      </trkpt>
      <trkpt lat="45.27627" lon="0.40396">
        <ele>89</ele>
        <time>2016-02-24T14:15:27Z</time>
      </trkpt>
      <trkpt lat="45.27631" lon="0.40395">
        <ele>88</ele>
        <time>2016-02-24T14:15:32Z</time>
      </trkpt>
      <trkpt lat="45.27634" lon="0.40405">
        <ele>84</ele>
        <time>2016-02-24T14:15:36Z</time>
      </trkpt>
      <trkpt lat="45.27638" lon="0.40406">
        <ele>84</ele>
        <time>2016-02-24T14:15:41Z</time>
      </trkpt>
      <trkpt lat="45.27643" lon="0.40408">
        <ele>84</ele>
        <time>2016-02-24T14:15:46Z</time>
      </trkpt>
      <trkpt lat="45.27647" lon="0.40408">
        <ele>84</ele>
        <time>2016-02-24T14:15:51Z</time>
      </trkpt>
      <trkpt lat="45.27651" lon="0.40405">
        <ele>85</ele>
        <time>2016-02-24T14:15:55Z</time>
      </trkpt>
      <trkpt lat="45.27656" lon="0.40401">
        <ele>87</ele>
        <time>2016-02-24T14:15:59Z</time>
      </trkpt>
      <trkpt lat="45.2766" lon="0.404">
        <ele>89</ele>
        <time>2016-02-24T14:16:03Z</time>
      </trkpt>
      <trkpt lat="45.27665" lon="0.40408">
        <ele>87</ele>
        <time>2016-02-24T14:16:08Z</time>
      </trkpt>
      <trkpt lat="45.27669" lon="0.40407">
        <ele>87</ele>
        <time>2016-02-24T14:16:13Z</time>
      </trkpt>
      <trkpt lat="45.27674" lon="0.40409">
        <ele>87</ele>
        <time>2016-02-24T14:16:17Z</time>
      </trkpt>
      <trkpt lat="45.27678" lon="0.40412">
        <ele>88</ele>
        <time>2016-02-24T14:16:21Z</time>
      </trkpt>
      <trkpt lat="45.27685" lon="0.40412">
        <ele>91</ele>
        <time>2016-02-24T14:16:26Z</time>
      </trkpt>
      <trkpt lat="45.2769" lon="0.40406">
        <ele>95</ele>
        <time>2016-02-24T14:16:30Z</time>
      </trkpt>
      <trkpt lat="45.27695" lon="0.40404">
        <ele>96</ele>
        <time>2016-02-24T14:16:35Z</time>
      </trkpt>
      <trkpt lat="45.27698" lon="0.40406">
        <ele>96</ele>
        <time>2016-02-24T14:16:39Z</time>
      </trkpt>
      <trkpt lat="45.27703" lon="0.40405">
        <ele>97</ele>
        <time>2016-02-24T14:16:44Z</time>
      </trkpt>
      <trkpt lat="45.27709" lon="0.40408">
        <ele>97</ele>
        <time>2016-02-24T14:16:49Z</time>
      </trkpt>
      <trkpt lat="45.27713" lon="0.40405">
        <ele>97</ele>
        <time>2016-02-24T14:16:53Z</time>
      </trkpt>
      <trkpt lat="45.27717" lon="0.40406">
        <ele>97</ele>
        <time>2016-02-24T14:16:57Z</time>
      </trkpt>
      <trkpt lat="45.27722" lon="0.40403">
        <ele>99</ele>
        <time>2016-02-24T14:17:01Z</time>
      </trkpt>
      <trkpt lat="45.27727" lon="0.40401">
        <ele>101</ele>
        <time>2016-02-24T14:17:06Z</time>
      </trkpt>
      <trkpt lat="45.27733" lon="0.40401">
        <ele>102</ele>
        <time>2016-02-24T14:17:11Z</time>
      </trkpt>
      <trkpt lat="45.27736" lon="0.40405">
        <ele>102</ele>
        <time>2016-02-24T14:17:15Z</time>
      </trkpt>
      <trkpt lat="45.27741" lon="0.40407">
        <ele>102</ele>
        <time>2016-02-24T14:17:20Z</time>
      </trkpt>
      <trkpt lat="45.27745" lon="0.40407">
        <ele>101</ele>
        <time>2016-02-24T14:17:24Z</time>
      </trkpt>
      <trkpt lat="45.27749" lon="0.40408">
        <ele>103</ele>
        <time>2016-02-24T14:17:29Z</time>
      </trkpt>
      <trkpt lat="45.27753" lon="0.40407">
        <ele>104</ele>
        <time>2016-02-24T14:17:34Z</time>
      </trkpt>
      <trkpt lat="45.27757" lon="0.40409">
        <ele>104</ele>
        <time>2016-02-24T14:17:39Z</time>
      </trkpt>
      <trkpt lat="45.27766" lon="0.40402">
        <ele>101</ele>
        <time>2016-02-24T14:17:44Z</time>
      </trkpt>
      <trkpt lat="45.27772" lon="0.40401">
        <ele>97</ele>
        <time>2016-02-24T14:17:48Z</time>
      </trkpt>
      <trkpt lat="45.27776" lon="0.40407">
        <ele>95</ele>
        <time>2016-02-24T14:17:52Z</time>
      </trkpt>
      <trkpt lat="45.2778" lon="0.40411">
        <ele>98</ele>
        <time>2016-02-24T14:17:57Z</time>
      </trkpt>
      <trkpt lat="45.27784" lon="0.40413">
        <ele>97</ele>
        <time>2016-02-24T14:18:02Z</time>
      </trkpt>
      <trkpt lat="45.2779" lon="0.40414">
        <ele>93</ele>
        <time>2016-02-24T14:18:07Z</time>
      </trkpt>
      <trkpt lat="45.27793" lon="0.4042">
        <ele>92</ele>
        <time>2016-02-24T14:18:11Z</time>
      </trkpt>
      <trkpt lat="45.278" lon="0.40424">
        <ele>90</ele>
        <time>2016-02-24T14:18:16Z</time>
      </trkpt>
      <trkpt lat="45.27805" lon="0.40426">
        <ele>92</ele>
        <time>2016-02-24T14:18:20Z</time>
      </trkpt>
      <trkpt lat="45.27809" lon="0.40431">
        <ele>90</ele>
        <time>2016-02-24T14:18:25Z</time>
      </trkpt>
      <trkpt lat="45.27813" lon="0.40433">
        <ele>91</ele>
        <time>2016-02-24T14:18:34Z</time>
      </trkpt>
      <trkpt lat="45.27817" lon="0.40435">
        <ele>92</ele>
        <time>2016-02-24T14:18:41Z</time>
      </trkpt>
      <trkpt lat="45.27821" lon="0.40437">
        <ele>90</ele>
        <time>2016-02-24T14:18:47Z</time>
      </trkpt>
      <trkpt lat="45.27826" lon="0.40444">
        <ele>86</ele>
        <time>2016-02-24T14:18:51Z</time>
      </trkpt>
      <trkpt lat="45.27832" lon="0.40445">
        <ele>85</ele>
        <time>2016-02-24T14:18:55Z</time>
      </trkpt>
      <trkpt lat="45.27836" lon="0.4045">
        <ele>82</ele>
        <time>2016-02-24T14:19:00Z</time>
      </trkpt>
      <trkpt lat="45.27839" lon="0.4045">
        <ele>85</ele>
        <time>2016-02-24T14:19:05Z</time>
      </trkpt>
      <trkpt lat="45.27843" lon="0.40452">
        <ele>87</ele>
        <time>2016-02-24T14:19:10Z</time>
      </trkpt>
      <trkpt lat="45.27848" lon="0.40454">
        <ele>89</ele>
        <time>2016-02-24T14:19:14Z</time>
      </trkpt>
      <trkpt lat="45.27851" lon="0.40461">
        <ele>90</ele>
        <time>2016-02-24T14:19:18Z</time>
      </trkpt>
      <trkpt lat="45.27858" lon="0.40462">
        <ele>89</ele>
        <time>2016-02-24T14:19:22Z</time>
      </trkpt>
      <trkpt lat="45.27864" lon="0.40466">
        <ele>90</ele>
        <time>2016-02-24T14:19:27Z</time>
      </trkpt>
      <trkpt lat="45.27868" lon="0.40464">
        <ele>91</ele>
        <time>2016-02-24T14:19:32Z</time>
      </trkpt>
      <trkpt lat="45.27872" lon="0.40472">
        <ele>93</ele>
        <time>2016-02-24T14:19:37Z</time>
      </trkpt>
      <trkpt lat="45.27877" lon="0.40475">
        <ele>92</ele>
        <time>2016-02-24T14:19:42Z</time>
      </trkpt>
      <trkpt lat="45.27882" lon="0.40477">
        <ele>89</ele>
        <time>2016-02-24T14:19:47Z</time>
      </trkpt>
      <trkpt lat="45.27886" lon="0.40482">
        <ele>86</ele>
        <time>2016-02-24T14:19:52Z</time>
      </trkpt>
      <trkpt lat="45.27891" lon="0.40483">
        <ele>84</ele>
        <time>2016-02-24T14:19:56Z</time>
      </trkpt>
      <trkpt lat="45.27894" lon="0.40485">
        <ele>86</ele>
        <time>2016-02-24T14:20:01Z</time>
      </trkpt>
      <trkpt lat="45.279" lon="0.40489">
        <ele>89</ele>
        <time>2016-02-24T14:20:05Z</time>
      </trkpt>
      <trkpt lat="45.27904" lon="0.40492">
        <ele>87</ele>
        <time>2016-02-24T14:20:11Z</time>
      </trkpt>
      <trkpt lat="45.27907" lon="0.40495">
        <ele>92</ele>
        <time>2016-02-24T14:20:16Z</time>
      </trkpt>
      <trkpt lat="45.27911" lon="0.40497">
        <ele>91</ele>
        <time>2016-02-24T14:20:20Z</time>
      </trkpt>
      <trkpt lat="45.27916" lon="0.40502">
        <ele>91</ele>
        <time>2016-02-24T14:20:24Z</time>
      </trkpt>
      <trkpt lat="45.27921" lon="0.40504">
        <ele>90</ele>
        <time>2016-02-24T14:20:29Z</time>
      </trkpt>
      <trkpt lat="45.27923" lon="0.40506">
        <ele>89</ele>
        <time>2016-02-24T14:20:33Z</time>
      </trkpt>
      <trkpt lat="45.27926" lon="0.40511">
        <ele>90</ele>
        <time>2016-02-24T14:20:46Z</time>
      </trkpt>
      <trkpt lat="45.27933" lon="0.40513">
        <ele>92</ele>
        <time>2016-02-24T14:20:50Z</time>
      </trkpt>
      <trkpt lat="45.27937" lon="0.40514">
        <ele>93</ele>
        <time>2016-02-24T14:20:55Z</time>
      </trkpt>
      <trkpt lat="45.27943" lon="0.40518">
        <ele>92</ele>
        <time>2016-02-24T14:21:00Z</time>
      </trkpt>
      <trkpt lat="45.27948" lon="0.40517">
        <ele>92</ele>
        <time>2016-02-24T14:21:05Z</time>
      </trkpt>
      <trkpt lat="45.27953" lon="0.40516">
        <ele>91</ele>
        <time>2016-02-24T14:21:10Z</time>
      </trkpt>
      <trkpt lat="45.27958" lon="0.40519">
        <ele>89</ele>
        <time>2016-02-24T14:21:14Z</time>
      </trkpt>
      <trkpt lat="45.27961" lon="0.4052">
        <ele>86</ele>
        <time>2016-02-24T14:21:23Z</time>
      </trkpt>
      <trkpt lat="45.2797" lon="0.40521">
        <ele>85</ele>
        <time>2016-02-24T14:21:28Z</time>
      </trkpt>
      <trkpt lat="45.27974" lon="0.40521">
        <ele>85</ele>
        <time>2016-02-24T14:21:32Z</time>
      </trkpt>
      <trkpt lat="45.2798" lon="0.40522">
        <ele>85</ele>
        <time>2016-02-24T14:21:36Z</time>
      </trkpt>
      <trkpt lat="45.27987" lon="0.40525">
        <ele>85</ele>
        <time>2016-02-24T14:21:41Z</time>
      </trkpt>
      <trkpt lat="45.27993" lon="0.40529">
        <ele>84</ele>
        <time>2016-02-24T14:21:46Z</time>
      </trkpt>
      <trkpt lat="45.28001" lon="0.4053">
        <ele>85</ele>
        <time>2016-02-24T14:21:51Z</time>
      </trkpt>
      <trkpt lat="45.28006" lon="0.40531">
        <ele>84</ele>
        <time>2016-02-24T14:21:55Z</time>
      </trkpt>
      <trkpt lat="45.28012" lon="0.40531">
        <ele>83</ele>
        <time>2016-02-24T14:22:00Z</time>
      </trkpt>
      <trkpt lat="45.28015" lon="0.40534">
        <ele>83</ele>
        <time>2016-02-24T14:22:04Z</time>
      </trkpt>
      <trkpt lat="45.28019" lon="0.40534">
        <ele>83</ele>
        <time>2016-02-24T14:22:08Z</time>
      </trkpt>
      <trkpt lat="45.28024" lon="0.40533">
        <ele>83</ele>
        <time>2016-02-24T14:22:12Z</time>
      </trkpt>
      <trkpt lat="45.28029" lon="0.40535">
        <ele>83</ele>
        <time>2016-02-24T14:22:17Z</time>
      </trkpt>
      <trkpt lat="45.28034" lon="0.40539">
        <ele>83</ele>
        <time>2016-02-24T14:22:21Z</time>
      </trkpt>
      <trkpt lat="45.28038" lon="0.40539">
        <ele>83</ele>
        <time>2016-02-24T14:22:25Z</time>
      </trkpt>
      <trkpt lat="45.28043" lon="0.40538">
        <ele>83</ele>
        <time>2016-02-24T14:22:30Z</time>
      </trkpt>
      <trkpt lat="45.28047" lon="0.4054">
        <ele>81</ele>
        <time>2016-02-24T14:22:35Z</time>
      </trkpt>
      <trkpt lat="45.28052" lon="0.40545">
        <ele>82</ele>
        <time>2016-02-24T14:22:40Z</time>
      </trkpt>
      <trkpt lat="45.28056" lon="0.40547">
        <ele>81</ele>
        <time>2016-02-24T14:22:52Z</time>
      </trkpt>
      <trkpt lat="45.2806" lon="0.40548">
        <ele>83</ele>
        <time>2016-02-24T14:22:56Z</time>
      </trkpt>
      <trkpt lat="45.28062" lon="0.40553">
        <ele>81</ele>
        <time>2016-02-24T14:23:00Z</time>
      </trkpt>
      <trkpt lat="45.28067" lon="0.40553">
        <ele>83</ele>
        <time>2016-02-24T14:23:04Z</time>
      </trkpt>
      <trkpt lat="45.28071" lon="0.40552">
        <ele>84</ele>
        <time>2016-02-24T14:23:09Z</time>
      </trkpt>
      <trkpt lat="45.28077" lon="0.40553">
        <ele>85</ele>
        <time>2016-02-24T14:23:14Z</time>
      </trkpt>
      <trkpt lat="45.28081" lon="0.40556">
        <ele>84</ele>
        <time>2016-02-24T14:23:18Z</time>
      </trkpt>
      <trkpt lat="45.28087" lon="0.40558">
        <ele>83</ele>
        <time>2016-02-24T14:23:23Z</time>
      </trkpt>
      <trkpt lat="45.28093" lon="0.4056">
        <ele>83</ele>
        <time>2016-02-24T14:23:28Z</time>
      </trkpt>
      <trkpt lat="45.28098" lon="0.40563">
        <ele>84</ele>
        <time>2016-02-24T14:23:32Z</time>
      </trkpt>
      <trkpt lat="45.28103" lon="0.40564">
        <ele>85</ele>
        <time>2016-02-24T14:23:37Z</time>
      </trkpt>
      <trkpt lat="45.28107" lon="0.40566">
        <ele>85</ele>
        <time>2016-02-24T14:23:41Z</time>
      </trkpt>
      <trkpt lat="45.28111" lon="0.40567">
        <ele>86</ele>
        <time>2016-02-24T14:23:47Z</time>
      </trkpt>
      <trkpt lat="45.28115" lon="0.40567">
        <ele>85</ele>
        <time>2016-02-24T14:23:56Z</time>
      </trkpt>
      <trkpt lat="45.28119" lon="0.40572">
        <ele>84</ele>
        <time>2016-02-24T14:24:00Z</time>
      </trkpt>
      <trkpt lat="45.28125" lon="0.40575">
        <ele>82</ele>
        <time>2016-02-24T14:24:05Z</time>
      </trkpt>
      <trkpt lat="45.28128" lon="0.40578">
        <ele>81</ele>
        <time>2016-02-24T14:24:09Z</time>
      </trkpt>
      <trkpt lat="45.28134" lon="0.40581">
        <ele>82</ele>
        <time>2016-02-24T14:24:14Z</time>
      </trkpt>
      <trkpt lat="45.28138" lon="0.40583">
        <ele>82</ele>
        <time>2016-02-24T14:24:19Z</time>
      </trkpt>
      <trkpt lat="45.28142" lon="0.40583">
        <ele>81</ele>
        <time>2016-02-24T14:24:25Z</time>
      </trkpt>
      <trkpt lat="45.28147" lon="0.40584">
        <ele>81</ele>
        <time>2016-02-24T14:24:29Z</time>
      </trkpt>
      <trkpt lat="45.28153" lon="0.40587">
        <ele>83</ele>
        <time>2016-02-24T14:24:34Z</time>
      </trkpt>
      <trkpt lat="45.28161" lon="0.40587">
        <ele>82</ele>
        <time>2016-02-24T14:24:39Z</time>
      </trkpt>
      <trkpt lat="45.28165" lon="0.40588">
        <ele>82</ele>
        <time>2016-02-24T14:24:43Z</time>
      </trkpt>
      <trkpt lat="45.28171" lon="0.40591">
        <ele>83</ele>
        <time>2016-02-24T14:24:48Z</time>
      </trkpt>
      <trkpt lat="45.28175" lon="0.4059">
        <ele>86</ele>
        <time>2016-02-24T14:24:52Z</time>
      </trkpt>
      <trkpt lat="45.28179" lon="0.40591">
        <ele>86</ele>
        <time>2016-02-24T14:24:57Z</time>
      </trkpt>
      <trkpt lat="45.28185" lon="0.40592">
        <ele>85</ele>
        <time>2016-02-24T14:25:02Z</time>
      </trkpt>
      <trkpt lat="45.28191" lon="0.40592">
        <ele>85</ele>
        <time>2016-02-24T14:25:07Z</time>
      </trkpt>
      <trkpt lat="45.28194" lon="0.40596">
        <ele>84</ele>
        <time>2016-02-24T14:25:21Z</time>
      </trkpt>
      <trkpt lat="45.28198" lon="0.40597">
        <ele>81</ele>
        <time>2016-02-24T14:25:25Z</time>
      </trkpt>
      <trkpt lat="45.28202" lon="0.40599">
        <ele>80</ele>
        <time>2016-02-24T14:25:30Z</time>
      </trkpt>
      <trkpt lat="45.28207" lon="0.40597">
        <ele>80</ele>
        <time>2016-02-24T14:25:34Z</time>
      </trkpt>
      <trkpt lat="45.28211" lon="0.40595">
        <ele>81</ele>
        <time>2016-02-24T14:25:39Z</time>
      </trkpt>
      <trkpt lat="45.28213" lon="0.40599">
        <ele>83</ele>
        <time>2016-02-24T14:25:50Z</time>
      </trkpt>
      <trkpt lat="45.28213" lon="0.40595">
        <ele>82</ele>
        <time>2016-02-24T14:25:58Z</time>
      </trkpt>
      <trkpt lat="45.28215" lon="0.40588">
        <ele>85</ele>
        <time>2016-02-24T14:26:03Z</time>
      </trkpt>
      <trkpt lat="45.28219" lon="0.40593">
        <ele>82</ele>
        <time>2016-02-24T14:26:07Z</time>
      </trkpt>
      <trkpt lat="45.28223" lon="0.40593">
        <ele>82</ele>
        <time>2016-02-24T14:26:12Z</time>
      </trkpt>
      <trkpt lat="45.28227" lon="0.40593">
        <ele>83</ele>
        <time>2016-02-24T14:26:16Z</time>
      </trkpt>
      <trkpt lat="45.28231" lon="0.40594">
        <ele>84</ele>
        <time>2016-02-24T14:26:20Z</time>
      </trkpt>
      <trkpt lat="45.28235" lon="0.40593">
        <ele>84</ele>
        <time>2016-02-24T14:26:25Z</time>
      </trkpt>
      <trkpt lat="45.28239" lon="0.40592">
        <ele>84</ele>
        <time>2016-02-24T14:26:35Z</time>
      </trkpt>
      <trkpt lat="45.28244" lon="0.40591">
        <ele>85</ele>
        <time>2016-02-24T14:26:39Z</time>
      </trkpt>
      <trkpt lat="45.28249" lon="0.40591">
        <ele>84</ele>
        <time>2016-02-24T14:26:43Z</time>
      </trkpt>
      <trkpt lat="45.28253" lon="0.40597">
        <ele>83</ele>
        <time>2016-02-24T14:26:47Z</time>
      </trkpt>
      <trkpt lat="45.28257" lon="0.40597">
        <ele>83</ele>
        <time>2016-02-24T14:26:51Z</time>
      </trkpt>
      <trkpt lat="45.2826" lon="0.40596">
        <ele>85</ele>
        <time>2016-02-24T14:26:55Z</time>
      </trkpt>
      <trkpt lat="45.28265" lon="0.40597">
        <ele>87</ele>
        <time>2016-02-24T14:27:00Z</time>
      </trkpt>
      <trkpt lat="45.2827" lon="0.40598">
        <ele>86</ele>
        <time>2016-02-24T14:27:04Z</time>
      </trkpt>
      <trkpt lat="45.28274" lon="0.40597">
        <ele>82</ele>
        <time>2016-02-24T14:27:21Z</time>
      </trkpt>
      <trkpt lat="45.28278" lon="0.40595">
        <ele>84</ele>
        <time>2016-02-24T14:27:26Z</time>
      </trkpt>
      <trkpt lat="45.28282" lon="0.40596">
        <ele>83</ele>
        <time>2016-02-24T14:27:31Z</time>
      </trkpt>
      <trkpt lat="45.28288" lon="0.40597">
        <ele>84</ele>
        <time>2016-02-24T14:27:36Z</time>
      </trkpt>
      <trkpt lat="45.28292" lon="0.40597">
        <ele>85</ele>
        <time>2016-02-24T14:27:41Z</time>
      </trkpt>
      <trkpt lat="45.28297" lon="0.40598">
        <ele>86</ele>
        <time>2016-02-24T14:27:46Z</time>
      </trkpt>
      <trkpt lat="45.283" lon="0.40599">
        <ele>86</ele>
        <time>2016-02-24T14:27:50Z</time>
      </trkpt>
      <trkpt lat="45.28305" lon="0.40596">
        <ele>87</ele>
        <time>2016-02-24T14:27:54Z</time>
      </trkpt>
      <trkpt lat="45.28309" lon="0.40597">
        <ele>88</ele>
        <time>2016-02-24T14:27:58Z</time>
      </trkpt>
      <trkpt lat="45.28315" lon="0.40599">
        <ele>87</ele>
        <time>2016-02-24T14:28:03Z</time>
      </trkpt>
      <trkpt lat="45.28319" lon="0.40601">
        <ele>87</ele>
        <time>2016-02-24T14:28:08Z</time>
      </trkpt>
      <trkpt lat="45.28323" lon="0.40602">
        <ele>86</ele>
        <time>2016-02-24T14:28:14Z</time>
      </trkpt>
      <trkpt lat="45.28329" lon="0.40599">
        <ele>87</ele>
        <time>2016-02-24T14:28:18Z</time>
      </trkpt>
      <trkpt lat="45.28332" lon="0.40599">
        <ele>87</ele>
        <time>2016-02-24T14:28:22Z</time>
      </trkpt>
      <trkpt lat="45.28336" lon="0.40601">
        <ele>85</ele>
        <time>2016-02-24T14:28:28Z</time>
      </trkpt>
      <trkpt lat="45.28341" lon="0.40601">
        <ele>87</ele>
        <time>2016-02-24T14:28:33Z</time>
      </trkpt>
      <trkpt lat="45.28345" lon="0.40605">
        <ele>83</ele>
        <time>2016-02-24T14:28:55Z</time>
      </trkpt>
      <trkpt lat="45.28349" lon="0.40605">
        <ele>84</ele>
        <time>2016-02-24T14:29:00Z</time>
      </trkpt>
      <trkpt lat="45.28353" lon="0.40609">
        <ele>82</ele>
        <time>2016-02-24T14:29:05Z</time>
      </trkpt>
      <trkpt lat="45.28357" lon="0.40609">
        <ele>84</ele>
        <time>2016-02-24T14:29:09Z</time>
      </trkpt>
      <trkpt lat="45.28363" lon="0.40609">
        <ele>84</ele>
        <time>2016-02-24T14:29:14Z</time>
      </trkpt>
      <trkpt lat="45.28368" lon="0.4061">
        <ele>85</ele>
        <time>2016-02-24T14:29:19Z</time>
      </trkpt>
      <trkpt lat="45.28372" lon="0.40613">
        <ele>86</ele>
        <time>2016-02-24T14:29:23Z</time>
      </trkpt>
      <trkpt lat="45.28377" lon="0.40613">
        <ele>87</ele>
        <time>2016-02-24T14:29:27Z</time>
      </trkpt>
      <trkpt lat="45.28381" lon="0.40616">
        <ele>87</ele>
        <time>2016-02-24T14:29:31Z</time>
      </trkpt>
      <trkpt lat="45.28385" lon="0.40617">
        <ele>88</ele>
        <time>2016-02-24T14:29:35Z</time>
      </trkpt>
      <trkpt lat="45.2839" lon="0.40619">
        <ele>87</ele>
        <time>2016-02-24T14:29:40Z</time>
      </trkpt>
      <trkpt lat="45.28395" lon="0.40622">
        <ele>88</ele>
        <time>2016-02-24T14:29:45Z</time>
      </trkpt>
      <trkpt lat="45.28399" lon="0.40624">
        <ele>87</ele>
        <time>2016-02-24T14:29:50Z</time>
      </trkpt>
      <trkpt lat="45.28404" lon="0.40627">
        <ele>88</ele>
        <time>2016-02-24T14:29:54Z</time>
      </trkpt>
      <trkpt lat="45.28408" lon="0.40629">
        <ele>87</ele>
        <time>2016-02-24T14:29:59Z</time>
      </trkpt>
      <trkpt lat="45.28413" lon="0.40628">
        <ele>89</ele>
        <time>2016-02-24T14:30:04Z</time>
      </trkpt>
      <trkpt lat="45.28417" lon="0.40631">
        <ele>90</ele>
        <time>2016-02-24T14:30:08Z</time>
      </trkpt>
      <trkpt lat="45.28419" lon="0.40635">
        <ele>89</ele>
        <time>2016-02-24T14:30:12Z</time>
      </trkpt>
      <trkpt lat="45.28425" lon="0.40636">
        <ele>87</ele>
        <time>2016-02-24T14:30:16Z</time>
      </trkpt>
      <trkpt lat="45.2843" lon="0.40638">
        <ele>87</ele>
        <time>2016-02-24T14:30:20Z</time>
      </trkpt>
      <trkpt lat="45.28434" lon="0.40639">
        <ele>87</ele>
        <time>2016-02-24T14:30:25Z</time>
      </trkpt>
      <trkpt lat="45.28438" lon="0.40641">
        <ele>86</ele>
        <time>2016-02-24T14:30:29Z</time>
      </trkpt>
      <trkpt lat="45.28442" lon="0.4064">
        <ele>86</ele>
        <time>2016-02-24T14:30:34Z</time>
      </trkpt>
      <trkpt lat="45.28446" lon="0.40637">
        <ele>85</ele>
        <time>2016-02-24T14:30:48Z</time>
      </trkpt>
      <trkpt lat="45.2845" lon="0.40635">
        <ele>84</ele>
        <time>2016-02-24T14:30:52Z</time>
      </trkpt>
      <trkpt lat="45.28455" lon="0.40634">
        <ele>85</ele>
        <time>2016-02-24T14:30:56Z</time>
      </trkpt>
      <trkpt lat="45.2846" lon="0.40639">
        <ele>86</ele>
        <time>2016-02-24T14:31:00Z</time>
      </trkpt>
      <trkpt lat="45.28463" lon="0.40636">
        <ele>86</ele>
        <time>2016-02-24T14:31:04Z</time>
      </trkpt>
      <trkpt lat="45.28468" lon="0.40635">
        <ele>87</ele>
        <time>2016-02-24T14:31:09Z</time>
      </trkpt>
      <trkpt lat="45.28474" lon="0.40636">
        <ele>88</ele>
        <time>2016-02-24T14:31:14Z</time>
      </trkpt>
      <trkpt lat="45.28479" lon="0.4064">
        <ele>84</ele>
        <time>2016-02-24T14:31:19Z</time>
      </trkpt>
      <trkpt lat="45.28485" lon="0.40645">
        <ele>82</ele>
        <time>2016-02-24T14:31:23Z</time>
      </trkpt>
      <trkpt lat="45.28489" lon="0.40649">
        <ele>82</ele>
        <time>2016-02-24T14:31:28Z</time>
      </trkpt>
      <trkpt lat="45.28494" lon="0.40648">
        <ele>82</ele>
        <time>2016-02-24T14:31:32Z</time>
      </trkpt>
      <trkpt lat="45.28499" lon="0.40647">
        <ele>81</ele>
        <time>2016-02-24T14:31:38Z</time>
      </trkpt>
      <trkpt lat="45.28503" lon="0.40645">
        <ele>83</ele>
        <time>2016-02-24T14:31:43Z</time>
      </trkpt>
      <trkpt lat="45.28507" lon="0.40644">
        <ele>85</ele>
        <time>2016-02-24T14:31:47Z</time>
      </trkpt>
      <trkpt lat="45.28514" lon="0.40645">
        <ele>85</ele>
        <time>2016-02-24T14:31:51Z</time>
      </trkpt>
      <trkpt lat="45.28518" lon="0.40644">
        <ele>85</ele>
        <time>2016-02-24T14:31:57Z</time>
      </trkpt>
      <trkpt lat="45.28522" lon="0.40643">
        <ele>85</ele>
        <time>2016-02-24T14:32:01Z</time>
      </trkpt>
      <trkpt lat="45.28526" lon="0.40645">
        <ele>86</ele>
        <time>2016-02-24T14:32:05Z</time>
      </trkpt>
      <trkpt lat="45.2853" lon="0.40647">
        <ele>86</ele>
        <time>2016-02-24T14:32:10Z</time>
      </trkpt>
      <trkpt lat="45.28534" lon="0.40644">
        <ele>87</ele>
        <time>2016-02-24T14:32:15Z</time>
      </trkpt>
      <trkpt lat="45.28539" lon="0.40646">
        <ele>87</ele>
        <time>2016-02-24T14:32:19Z</time>
      </trkpt>
      <trkpt lat="45.28544" lon="0.40642">
        <ele>85</ele>
        <time>2016-02-24T14:32:24Z</time>
      </trkpt>
      <trkpt lat="45.28548" lon="0.40645">
        <ele>86</ele>
        <time>2016-02-24T14:32:28Z</time>
      </trkpt>
      <trkpt lat="45.28552" lon="0.40647">
        <ele>86</ele>
        <time>2016-02-24T14:32:32Z</time>
      </trkpt>
      <trkpt lat="45.28557" lon="0.40648">
        <ele>87</ele>
        <time>2016-02-24T14:32:39Z</time>
      </trkpt>
      <trkpt lat="45.28562" lon="0.40643">
        <ele>89</ele>
        <time>2016-02-24T14:32:44Z</time>
      </trkpt>
      <trkpt lat="45.28565" lon="0.40644">
        <ele>88</ele>
        <time>2016-02-24T14:32:58Z</time>
      </trkpt>
      <trkpt lat="45.2857" lon="0.40645">
        <ele>88</ele>
        <time>2016-02-24T14:33:02Z</time>
      </trkpt>
      <trkpt lat="45.28576" lon="0.40644">
        <ele>89</ele>
        <time>2016-02-24T14:33:07Z</time>
      </trkpt>
      <trkpt lat="45.2858" lon="0.40645">
        <ele>89</ele>
        <time>2016-02-24T14:33:12Z</time>
      </trkpt>
      <trkpt lat="45.28587" lon="0.40645">
        <ele>89</ele>
        <time>2016-02-24T14:33:17Z</time>
      </trkpt>
      <trkpt lat="45.28593" lon="0.40645">
        <ele>89</ele>
        <time>2016-02-24T14:33:22Z</time>
      </trkpt>
      <trkpt lat="45.28598" lon="0.40645">
        <ele>91</ele>
        <time>2016-02-24T14:33:26Z</time>
      </trkpt>
      <trkpt lat="45.28602" lon="0.40646">
        <ele>91</ele>
        <time>2016-02-24T14:33:30Z</time>
      </trkpt>
      <trkpt lat="45.28606" lon="0.40645">
        <ele>92</ele>
        <time>2016-02-24T14:33:34Z</time>
      </trkpt>
      <trkpt lat="45.2861" lon="0.40647">
        <ele>92</ele>
        <time>2016-02-24T14:33:38Z</time>
      </trkpt>
      <trkpt lat="45.28617" lon="0.40646">
        <ele>94</ele>
        <time>2016-02-24T14:33:42Z</time>
      </trkpt>
      <trkpt lat="45.28621" lon="0.40647">
        <ele>93</ele>
        <time>2016-02-24T14:33:47Z</time>
      </trkpt>
      <trkpt lat="45.28627" lon="0.40646">
        <ele>94</ele>
        <time>2016-02-24T14:33:51Z</time>
      </trkpt>
      <trkpt lat="45.2863" lon="0.4065">
        <ele>90</ele>
        <time>2016-02-24T14:33:57Z</time>
      </trkpt>
      <trkpt lat="45.28635" lon="0.40651">
        <ele>88</ele>
        <time>2016-02-24T14:34:02Z</time>
      </trkpt>
      <trkpt lat="45.28642" lon="0.40648">
        <ele>89</ele>
        <time>2016-02-24T14:34:07Z</time>
      </trkpt>
      <trkpt lat="45.28648" lon="0.40649">
        <ele>87</ele>
        <time>2016-02-24T14:34:11Z</time>
      </trkpt>
      <trkpt lat="45.28651" lon="0.40653">
        <ele>86</ele>
        <time>2016-02-24T14:34:16Z</time>
      </trkpt>
      <trkpt lat="45.28655" lon="0.40655">
        <ele>86</ele>
        <time>2016-02-24T14:34:21Z</time>
      </trkpt>
      <trkpt lat="45.28661" lon="0.40657">
        <ele>86</ele>
        <time>2016-02-24T14:34:26Z</time>
      </trkpt>
      <trkpt lat="45.28665" lon="0.40658">
        <ele>88</ele>
        <time>2016-02-24T14:34:30Z</time>
      </trkpt>
      <trkpt lat="45.2867" lon="0.40661">
        <ele>87</ele>
        <time>2016-02-24T14:34:35Z</time>
      </trkpt>
      <trkpt lat="45.28674" lon="0.40664">
        <ele>88</ele>
        <time>2016-02-24T14:34:39Z</time>
      </trkpt>
      <trkpt lat="45.28678" lon="0.40664">
        <ele>87</ele>
        <time>2016-02-24T14:34:44Z</time>
      </trkpt>
      <trkpt lat="45.28683" lon="0.40667">
        <ele>87</ele>
        <time>2016-02-24T14:34:48Z</time>
      </trkpt>
      <trkpt lat="45.28687" lon="0.40667">
        <ele>90</ele>
        <time>2016-02-24T14:34:53Z</time>
      </trkpt>
      <trkpt lat="45.28691" lon="0.4067">
        <ele>88</ele>
        <time>2016-02-24T14:34:58Z</time>
      </trkpt>
      <trkpt lat="45.28696" lon="0.40672">
        <ele>88</ele>
        <time>2016-02-24T14:35:03Z</time>
      </trkpt>
      <trkpt lat="45.28702" lon="0.40672">
        <ele>89</ele>
        <time>2016-02-24T14:35:07Z</time>
      </trkpt>
      <trkpt lat="45.28708" lon="0.40673">
        <ele>89</ele>
        <time>2016-02-24T14:35:12Z</time>
      </trkpt>
      <trkpt lat="45.28716" lon="0.40674">
        <ele>91</ele>
        <time>2016-02-24T14:35:16Z</time>
      </trkpt>
      <trkpt lat="45.28721" lon="0.40676">
        <ele>91</ele>
        <time>2016-02-24T14:35:21Z</time>
      </trkpt>
      <trkpt lat="45.28725" lon="0.40679">
        <ele>89</ele>
        <time>2016-02-24T14:35:25Z</time>
      </trkpt>
      <trkpt lat="45.2873" lon="0.40681">
        <ele>90</ele>
        <time>2016-02-24T14:35:29Z</time>
      </trkpt>
      <trkpt lat="45.28736" lon="0.40684">
        <ele>90</ele>
        <time>2016-02-24T14:35:34Z</time>
      </trkpt>
      <trkpt lat="45.28741" lon="0.40686">
        <ele>90</ele>
        <time>2016-02-24T14:35:39Z</time>
      </trkpt>
      <trkpt lat="45.28746" lon="0.40688">
        <ele>91</ele>
        <time>2016-02-24T14:35:44Z</time>
      </trkpt>
      <trkpt lat="45.28749" lon="0.4069">
        <ele>92</ele>
        <time>2016-02-24T14:35:49Z</time>
      </trkpt>
      <trkpt lat="45.28755" lon="0.40692">
        <ele>93</ele>
        <time>2016-02-24T14:35:54Z</time>
      </trkpt>
      <trkpt lat="45.2876" lon="0.40696">
        <ele>93</ele>
        <time>2016-02-24T14:35:59Z</time>
      </trkpt>
      <trkpt lat="45.28763" lon="0.40699">
        <ele>94</ele>
        <time>2016-02-24T14:36:04Z</time>
      </trkpt>
      <trkpt lat="45.28766" lon="0.40703">
        <ele>94</ele>
        <time>2016-02-24T14:36:08Z</time>
      </trkpt>
      <trkpt lat="45.28771" lon="0.40707">
        <ele>94</ele>
        <time>2016-02-24T14:36:13Z</time>
      </trkpt>
      <trkpt lat="45.28775" lon="0.40709">
        <ele>93</ele>
        <time>2016-02-24T14:36:18Z</time>
      </trkpt>
      <trkpt lat="45.28782" lon="0.4071">
        <ele>94</ele>
        <time>2016-02-24T14:36:23Z</time>
      </trkpt>
      <trkpt lat="45.28786" lon="0.40712">
        <ele>93</ele>
        <time>2016-02-24T14:36:28Z</time>
      </trkpt>
      <trkpt lat="45.2879" lon="0.40714">
        <ele>93</ele>
        <time>2016-02-24T14:36:33Z</time>
      </trkpt>
      <trkpt lat="45.28794" lon="0.40716">
        <ele>93</ele>
        <time>2016-02-24T14:36:40Z</time>
      </trkpt>
      <trkpt lat="45.28798" lon="0.40718">
        <ele>90</ele>
        <time>2016-02-24T14:36:45Z</time>
      </trkpt>
      <trkpt lat="45.28803" lon="0.40721">
        <ele>92</ele>
        <time>2016-02-24T14:36:50Z</time>
      </trkpt>
      <trkpt lat="45.28806" lon="0.40723">
        <ele>93</ele>
        <time>2016-02-24T14:36:54Z</time>
      </trkpt>
      <trkpt lat="45.28812" lon="0.40724">
        <ele>94</ele>
        <time>2016-02-24T14:36:58Z</time>
      </trkpt>
      <trkpt lat="45.28817" lon="0.40722">
        <ele>94</ele>
        <time>2016-02-24T14:37:03Z</time>
      </trkpt>
      <trkpt lat="45.28821" lon="0.40721">
        <ele>92</ele>
        <time>2016-02-24T14:37:08Z</time>
      </trkpt>
      <trkpt lat="45.28826" lon="0.40721">
        <ele>90</ele>
        <time>2016-02-24T14:37:12Z</time>
      </trkpt>
      <trkpt lat="45.2883" lon="0.40719">
        <ele>89</ele>
        <time>2016-02-24T14:37:17Z</time>
      </trkpt>
      <trkpt lat="45.28834" lon="0.40715">
        <ele>89</ele>
        <time>2016-02-24T14:37:22Z</time>
      </trkpt>
      <trkpt lat="45.28839" lon="0.40714">
        <ele>89</ele>
        <time>2016-02-24T14:37:26Z</time>
      </trkpt>
      <trkpt lat="45.28843" lon="0.40714">
        <ele>90</ele>
        <time>2016-02-24T14:37:30Z</time>
      </trkpt>
      <trkpt lat="45.2885" lon="0.40713">
        <ele>90</ele>
        <time>2016-02-24T14:37:35Z</time>
      </trkpt>
      <trkpt lat="45.28857" lon="0.40711">
        <ele>92</ele>
        <time>2016-02-24T14:37:40Z</time>
      </trkpt>
      <trkpt lat="45.28863" lon="0.40711">
        <ele>93</ele>
        <time>2016-02-24T14:37:44Z</time>
      </trkpt>
      <trkpt lat="45.28868" lon="0.4071">
        <ele>93</ele>
        <time>2016-02-24T14:37:48Z</time>
      </trkpt>
      <trkpt lat="45.28872" lon="0.4071">
        <ele>93</ele>
        <time>2016-02-24T14:37:53Z</time>
      </trkpt>
      <trkpt lat="45.28877" lon="0.40711">
        <ele>93</ele>
        <time>2016-02-24T14:37:57Z</time>
      </trkpt>
      <trkpt lat="45.2888" lon="0.4071">
        <ele>93</ele>
        <time>2016-02-24T14:38:02Z</time>
      </trkpt>
      <trkpt lat="45.28885" lon="0.4071">
        <ele>92</ele>
        <time>2016-02-24T14:38:06Z</time>
      </trkpt>
      <trkpt lat="45.28889" lon="0.40712">
        <ele>92</ele>
        <time>2016-02-24T14:38:10Z</time>
      </trkpt>
      <trkpt lat="45.28893" lon="0.40712">
        <ele>94</ele>
        <time>2016-02-24T14:38:14Z</time>
      </trkpt>
      <trkpt lat="45.28899" lon="0.40712">
        <ele>92</ele>
        <time>2016-02-24T14:38:19Z</time>
      </trkpt>
      <trkpt lat="45.28905" lon="0.40713">
        <ele>94</ele>
        <time>2016-02-24T14:38:23Z</time>
      </trkpt>
      <trkpt lat="45.28909" lon="0.40715">
        <ele>95</ele>
        <time>2016-02-24T14:38:28Z</time>
      </trkpt>
      <trkpt lat="45.28913" lon="0.40718">
        <ele>96</ele>
        <time>2016-02-24T14:38:32Z</time>
      </trkpt>
      <trkpt lat="45.28918" lon="0.4072">
        <ele>95</ele>
        <time>2016-02-24T14:38:37Z</time>
      </trkpt>
      <trkpt lat="45.28921" lon="0.40723">
        <ele>96</ele>
        <time>2016-02-24T14:38:41Z</time>
      </trkpt>
      <trkpt lat="45.28926" lon="0.40723">
        <ele>96</ele>
        <time>2016-02-24T14:38:45Z</time>
      </trkpt>
      <trkpt lat="45.2893" lon="0.40728">
        <ele>96</ele>
        <time>2016-02-24T14:38:50Z</time>
      </trkpt>
      <trkpt lat="45.28934" lon="0.4073">
        <ele>96</ele>
        <time>2016-02-24T14:38:54Z</time>
      </trkpt>
      <trkpt lat="45.28938" lon="0.40731">
        <ele>96</ele>
        <time>2016-02-24T14:38:59Z</time>
      </trkpt>
      <trkpt lat="45.28942" lon="0.40733">
        <ele>96</ele>
        <time>2016-02-24T14:39:07Z</time>
      </trkpt>
      <trkpt lat="45.28948" lon="0.40732">
        <ele>94</ele>
        <time>2016-02-24T14:39:12Z</time>
      </trkpt>
      <trkpt lat="45.28951" lon="0.40735">
        <ele>92</ele>
        <time>2016-02-24T14:39:17Z</time>
      </trkpt>
      <trkpt lat="45.28955" lon="0.40733">
        <ele>91</ele>
        <time>2016-02-24T14:39:22Z</time>
      </trkpt>
      <trkpt lat="45.28958" lon="0.40736">
        <ele>92</ele>
        <time>2016-02-24T14:39:28Z</time>
      </trkpt>
      <trkpt lat="45.28962" lon="0.4074">
        <ele>94</ele>
        <time>2016-02-24T14:39:33Z</time>
      </trkpt>
      <trkpt lat="45.28967" lon="0.40741">
        <ele>94</ele>
        <time>2016-02-24T14:39:37Z</time>
      </trkpt>
      <trkpt lat="45.28971" lon="0.40745">
        <ele>93</ele>
        <time>2016-02-24T14:39:42Z</time>
      </trkpt>
      <trkpt lat="45.28978" lon="0.40749">
        <ele>93</ele>
        <time>2016-02-24T14:39:47Z</time>
      </trkpt>
      <trkpt lat="45.28981" lon="0.40753">
        <ele>94</ele>
        <time>2016-02-24T14:39:51Z</time>
      </trkpt>
      <trkpt lat="45.28984" lon="0.40757">
        <ele>94</ele>
        <time>2016-02-24T14:39:56Z</time>
      </trkpt>
      <trkpt lat="45.28988" lon="0.40759">
        <ele>93</ele>
        <time>2016-02-24T14:40:00Z</time>
      </trkpt>
      <trkpt lat="45.28991" lon="0.40763">
        <ele>93</ele>
        <time>2016-02-24T14:40:05Z</time>
      </trkpt>
      <trkpt lat="45.28996" lon="0.40767">
        <ele>94</ele>
        <time>2016-02-24T14:40:09Z</time>
      </trkpt>
      <trkpt lat="45.28998" lon="0.40772">
        <ele>92</ele>
        <time>2016-02-24T14:40:16Z</time>
      </trkpt>
      <trkpt lat="45.29001" lon="0.40777">
        <ele>93</ele>
        <time>2016-02-24T14:40:20Z</time>
      </trkpt>
      <trkpt lat="45.29005" lon="0.4078">
        <ele>92</ele>
        <time>2016-02-24T14:40:27Z</time>
      </trkpt>
      <trkpt lat="45.29009" lon="0.40785">
        <ele>92</ele>
        <time>2016-02-24T14:40:32Z</time>
      </trkpt>
      <trkpt lat="45.29012" lon="0.40789">
        <ele>92</ele>
        <time>2016-02-24T14:40:36Z</time>
      </trkpt>
      <trkpt lat="45.29014" lon="0.40793">
        <ele>92</ele>
        <time>2016-02-24T14:40:41Z</time>
      </trkpt>
      <trkpt lat="45.29018" lon="0.40798">
        <ele>93</ele>
        <time>2016-02-24T14:40:46Z</time>
      </trkpt>
      <trkpt lat="45.29022" lon="0.40801">
        <ele>93</ele>
        <time>2016-02-24T14:40:50Z</time>
      </trkpt>
      <trkpt lat="45.29026" lon="0.40804">
        <ele>95</ele>
        <time>2016-02-24T14:40:55Z</time>
      </trkpt>
      <trkpt lat="45.2903" lon="0.40808">
        <ele>94</ele>
        <time>2016-02-24T14:40:59Z</time>
      </trkpt>
      <trkpt lat="45.29033" lon="0.40811">
        <ele>94</ele>
        <time>2016-02-24T14:41:03Z</time>
      </trkpt>
      <trkpt lat="45.29036" lon="0.40814">
        <ele>94</ele>
        <time>2016-02-24T14:41:08Z</time>
      </trkpt>
      <trkpt lat="45.29039" lon="0.40818">
        <ele>93</ele>
        <time>2016-02-24T14:41:12Z</time>
      </trkpt>
      <trkpt lat="45.29042" lon="0.40822">
        <ele>93</ele>
        <time>2016-02-24T14:41:18Z</time>
      </trkpt>
      <trkpt lat="45.29047" lon="0.40824">
        <ele>93</ele>
        <time>2016-02-24T14:41:22Z</time>
      </trkpt>
      <trkpt lat="45.29051" lon="0.40826">
        <ele>93</ele>
        <time>2016-02-24T14:41:27Z</time>
      </trkpt>
      <trkpt lat="45.29056" lon="0.40828">
        <ele>91</ele>
        <time>2016-02-24T14:41:32Z</time>
      </trkpt>
      <trkpt lat="45.29062" lon="0.40831">
        <ele>91</ele>
        <time>2016-02-24T14:41:37Z</time>
      </trkpt>
      <trkpt lat="45.29067" lon="0.40835">
        <ele>90</ele>
        <time>2016-02-24T14:41:42Z</time>
      </trkpt>
      <trkpt lat="45.29071" lon="0.40838">
        <ele>91</ele>
        <time>2016-02-24T14:41:47Z</time>
      </trkpt>
      <trkpt lat="45.29076" lon="0.40841">
        <ele>93</ele>
        <time>2016-02-24T14:41:51Z</time>
      </trkpt>
      <trkpt lat="45.29082" lon="0.40836">
        <ele>98</ele>
        <time>2016-02-24T14:41:56Z</time>
      </trkpt>
      <trkpt lat="45.29084" lon="0.40841">
        <ele>97</ele>
        <time>2016-02-24T14:42:01Z</time>
      </trkpt>
      <trkpt lat="45.29088" lon="0.40844">
        <ele>97</ele>
        <time>2016-02-24T14:42:05Z</time>
      </trkpt>
      <trkpt lat="45.29091" lon="0.40847">
        <ele>95</ele>
        <time>2016-02-24T14:42:12Z</time>
      </trkpt>
      <trkpt lat="45.29097" lon="0.40851">
        <ele>95</ele>
        <time>2016-02-24T14:42:17Z</time>
      </trkpt>
      <trkpt lat="45.29102" lon="0.40854">
        <ele>95</ele>
        <time>2016-02-24T14:42:21Z</time>
      </trkpt>
      <trkpt lat="45.29107" lon="0.40859">
        <ele>94</ele>
        <time>2016-02-24T14:42:26Z</time>
      </trkpt>
      <trkpt lat="45.2911" lon="0.40861">
        <ele>94</ele>
        <time>2016-02-24T14:42:30Z</time>
      </trkpt>
      <trkpt lat="45.29114" lon="0.40863">
        <ele>95</ele>
        <time>2016-02-24T14:42:34Z</time>
      </trkpt>
      <trkpt lat="45.29118" lon="0.40868">
        <ele>94</ele>
        <time>2016-02-24T14:42:39Z</time>
      </trkpt>
      <trkpt lat="45.29122" lon="0.40871">
        <ele>95</ele>
        <time>2016-02-24T14:42:43Z</time>
      </trkpt>
      <trkpt lat="45.29126" lon="0.40877">
        <ele>95</ele>
        <time>2016-02-24T14:42:47Z</time>
      </trkpt>
      <trkpt lat="45.2913" lon="0.4088">
        <ele>95</ele>
        <time>2016-02-24T14:42:51Z</time>
      </trkpt>
      <trkpt lat="45.29135" lon="0.40884">
        <ele>97</ele>
        <time>2016-02-24T14:42:56Z</time>
      </trkpt>
      <trkpt lat="45.29141" lon="0.40888">
        <ele>96</ele>
        <time>2016-02-24T14:43:01Z</time>
      </trkpt>
      <trkpt lat="45.29144" lon="0.40892">
        <ele>95</ele>
        <time>2016-02-24T14:43:07Z</time>
      </trkpt>
      <trkpt lat="45.29148" lon="0.40896">
        <ele>96</ele>
        <time>2016-02-24T14:43:12Z</time>
      </trkpt>
      <trkpt lat="45.29151" lon="0.40898">
        <ele>96</ele>
        <time>2016-02-24T14:43:19Z</time>
      </trkpt>
      <trkpt lat="45.29156" lon="0.40902">
        <ele>94</ele>
        <time>2016-02-24T14:43:24Z</time>
      </trkpt>
      <trkpt lat="45.29159" lon="0.40907">
        <ele>93</ele>
        <time>2016-02-24T14:43:28Z</time>
      </trkpt>
      <trkpt lat="45.29163" lon="0.40909">
        <ele>94</ele>
        <time>2016-02-24T14:43:33Z</time>
      </trkpt>
      <trkpt lat="45.2917" lon="0.40914">
        <ele>96</ele>
        <time>2016-02-24T14:43:38Z</time>
      </trkpt>
      <trkpt lat="45.29175" lon="0.4092">
        <ele>96</ele>
        <time>2016-02-24T14:43:43Z</time>
      </trkpt>
      <trkpt lat="45.29181" lon="0.40922">
        <ele>98</ele>
        <time>2016-02-24T14:43:47Z</time>
      </trkpt>
      <trkpt lat="45.29184" lon="0.40925">
        <ele>97</ele>
        <time>2016-02-24T14:43:52Z</time>
      </trkpt>
      <trkpt lat="45.29188" lon="0.4093">
        <ele>97</ele>
        <time>2016-02-24T14:43:56Z</time>
      </trkpt>
      <trkpt lat="45.29192" lon="0.40932">
        <ele>98</ele>
        <time>2016-02-24T14:44:02Z</time>
      </trkpt>
      <trkpt lat="45.29196" lon="0.40936">
        <ele>98</ele>
        <time>2016-02-24T14:44:06Z</time>
      </trkpt>
      <trkpt lat="45.292" lon="0.40939">
        <ele>99</ele>
        <time>2016-02-24T14:44:11Z</time>
      </trkpt>
      <trkpt lat="45.29203" lon="0.40942">
        <ele>98</ele>
        <time>2016-02-24T14:44:17Z</time>
      </trkpt>
      <trkpt lat="45.29206" lon="0.40946">
        <ele>97</ele>
        <time>2016-02-24T14:44:22Z</time>
      </trkpt>
      <trkpt lat="45.29211" lon="0.40947">
        <ele>98</ele>
        <time>2016-02-24T14:44:26Z</time>
      </trkpt>
      <trkpt lat="45.29216" lon="0.40951">
        <ele>99</ele>
        <time>2016-02-24T14:44:31Z</time>
      </trkpt>
      <trkpt lat="45.2922" lon="0.40953">
        <ele>100</ele>
        <time>2016-02-24T14:44:36Z</time>
      </trkpt>
      <trkpt lat="45.29224" lon="0.40954">
        <ele>101</ele>
        <time>2016-02-24T14:44:41Z</time>
      </trkpt>
      <trkpt lat="45.2923" lon="0.40954">
        <ele>100</ele>
        <time>2016-02-24T14:44:46Z</time>
      </trkpt>
      <trkpt lat="45.29233" lon="0.40955">
        <ele>99</ele>
        <time>2016-02-24T14:44:51Z</time>
      </trkpt>
      <trkpt lat="45.29238" lon="0.40956">
        <ele>98</ele>
        <time>2016-02-24T14:44:55Z</time>
      </trkpt>
      <trkpt lat="45.29241" lon="0.40954">
        <ele>97</ele>
        <time>2016-02-24T14:44:59Z</time>
      </trkpt>
      <trkpt lat="45.29247" lon="0.40954">
        <ele>94</ele>
        <time>2016-02-24T14:45:04Z</time>
      </trkpt>
      <trkpt lat="45.29251" lon="0.40956">
        <ele>95</ele>
        <time>2016-02-24T14:45:08Z</time>
      </trkpt>
      <trkpt lat="45.29255" lon="0.4096">
        <ele>95</ele>
        <time>2016-02-24T14:45:12Z</time>
      </trkpt>
      <trkpt lat="45.29262" lon="0.40962">
        <ele>97</ele>
        <time>2016-02-24T14:45:16Z</time>
      </trkpt>
      <trkpt lat="45.29264" lon="0.40965">
        <ele>96</ele>
        <time>2016-02-24T14:45:22Z</time>
      </trkpt>
      <trkpt lat="45.29268" lon="0.4097">
        <ele>95</ele>
        <time>2016-02-24T14:45:26Z</time>
      </trkpt>
      <trkpt lat="45.29271" lon="0.40973">
        <ele>98</ele>
        <time>2016-02-24T14:45:30Z</time>
      </trkpt>
      <trkpt lat="45.29274" lon="0.40977">
        <ele>98</ele>
        <time>2016-02-24T14:45:34Z</time>
      </trkpt>
      <trkpt lat="45.29278" lon="0.40982">
        <ele>98</ele>
        <time>2016-02-24T14:45:39Z</time>
      </trkpt>
      <trkpt lat="45.29281" lon="0.40986">
        <ele>97</ele>
        <time>2016-02-24T14:45:43Z</time>
      </trkpt>
      <trkpt lat="45.29284" lon="0.40991">
        <ele>96</ele>
        <time>2016-02-24T14:45:47Z</time>
      </trkpt>
      <trkpt lat="45.29287" lon="0.40994">
        <ele>96</ele>
        <time>2016-02-24T14:45:51Z</time>
      </trkpt>
      <trkpt lat="45.29293" lon="0.40998">
        <ele>95</ele>
        <time>2016-02-24T14:45:56Z</time>
      </trkpt>
      <trkpt lat="45.29296" lon="0.41002">
        <ele>96</ele>
        <time>2016-02-24T14:46:01Z</time>
      </trkpt>
      <trkpt lat="45.29299" lon="0.41004">
        <ele>97</ele>
        <time>2016-02-24T14:46:05Z</time>
      </trkpt>
      <trkpt lat="45.29302" lon="0.41009">
        <ele>96</ele>
        <time>2016-02-24T14:46:09Z</time>
      </trkpt>
      <trkpt lat="45.29306" lon="0.41013">
        <ele>95</ele>
        <time>2016-02-24T14:46:14Z</time>
      </trkpt>
      <trkpt lat="45.2931" lon="0.41017">
        <ele>95</ele>
        <time>2016-02-24T14:46:18Z</time>
      </trkpt>
      <trkpt lat="45.29314" lon="0.41022">
        <ele>93</ele>
        <time>2016-02-24T14:46:23Z</time>
      </trkpt>
      <trkpt lat="45.29319" lon="0.41027">
        <ele>93</ele>
        <time>2016-02-24T14:46:28Z</time>
      </trkpt>
      <trkpt lat="45.29324" lon="0.41027">
        <ele>94</ele>
        <time>2016-02-24T14:46:33Z</time>
      </trkpt>
      <trkpt lat="45.29329" lon="0.41027">
        <ele>94</ele>
        <time>2016-02-24T14:46:37Z</time>
      </trkpt>
      <trkpt lat="45.29332" lon="0.41031">
        <ele>93</ele>
        <time>2016-02-24T14:46:41Z</time>
      </trkpt>
      <trkpt lat="45.29336" lon="0.41035">
        <ele>92</ele>
        <time>2016-02-24T14:46:45Z</time>
      </trkpt>
      <trkpt lat="45.2934" lon="0.41037">
        <ele>94</ele>
        <time>2016-02-24T14:46:50Z</time>
      </trkpt>
      <trkpt lat="45.29344" lon="0.41039">
        <ele>92</ele>
        <time>2016-02-24T14:46:54Z</time>
      </trkpt>
      <trkpt lat="45.29348" lon="0.41041">
        <ele>92</ele>
        <time>2016-02-24T14:46:58Z</time>
      </trkpt>
      <trkpt lat="45.29352" lon="0.41043">
        <ele>92</ele>
        <time>2016-02-24T14:47:02Z</time>
      </trkpt>
      <trkpt lat="45.29355" lon="0.41043">
        <ele>92</ele>
        <time>2016-02-24T14:47:07Z</time>
      </trkpt>
      <trkpt lat="45.2936" lon="0.41044">
        <ele>93</ele>
        <time>2016-02-24T14:47:11Z</time>
      </trkpt>
      <trkpt lat="45.29364" lon="0.41046">
        <ele>93</ele>
        <time>2016-02-24T14:47:15Z</time>
      </trkpt>
      <trkpt lat="45.29369" lon="0.41047">
        <ele>92</ele>
        <time>2016-02-24T14:47:20Z</time>
      </trkpt>
      <trkpt lat="45.29374" lon="0.41046">
        <ele>92</ele>
        <time>2016-02-24T14:47:25Z</time>
      </trkpt>
      <trkpt lat="45.29378" lon="0.41042">
        <ele>94</ele>
        <time>2016-02-24T14:47:29Z</time>
      </trkpt>
      <trkpt lat="45.29382" lon="0.41042">
        <ele>94</ele>
        <time>2016-02-24T14:47:33Z</time>
      </trkpt>
      <trkpt lat="45.29387" lon="0.4104">
        <ele>93</ele>
        <time>2016-02-24T14:47:38Z</time>
      </trkpt>
      <trkpt lat="45.29391" lon="0.4104">
        <ele>94</ele>
        <time>2016-02-24T14:47:44Z</time>
      </trkpt>
      <trkpt lat="45.29397" lon="0.4104">
        <ele>95</ele>
        <time>2016-02-24T14:47:49Z</time>
      </trkpt>
      <trkpt lat="45.29402" lon="0.4104">
        <ele>94</ele>
        <time>2016-02-24T14:47:53Z</time>
      </trkpt>
      <trkpt lat="45.29404" lon="0.41044">
        <ele>93</ele>
        <time>2016-02-24T14:48:01Z</time>
      </trkpt>
      <trkpt lat="45.29409" lon="0.41047">
        <ele>91</ele>
        <time>2016-02-24T14:48:05Z</time>
      </trkpt>
      <trkpt lat="45.29415" lon="0.41049">
        <ele>89</ele>
        <time>2016-02-24T14:48:09Z</time>
      </trkpt>
      <trkpt lat="45.29419" lon="0.41053">
        <ele>90</ele>
        <time>2016-02-24T14:48:17Z</time>
      </trkpt>
      <trkpt lat="45.29422" lon="0.41057">
        <ele>89</ele>
        <time>2016-02-24T14:48:22Z</time>
      </trkpt>
      <trkpt lat="45.29427" lon="0.4106">
        <ele>89</ele>
        <time>2016-02-24T14:48:27Z</time>
      </trkpt>
      <trkpt lat="45.29432" lon="0.41066">
        <ele>89</ele>
        <time>2016-02-24T14:48:31Z</time>
      </trkpt>
      <trkpt lat="45.29437" lon="0.41067">
        <ele>89</ele>
        <time>2016-02-24T14:48:35Z</time>
      </trkpt>
      <trkpt lat="45.29441" lon="0.4107">
        <ele>91</ele>
        <time>2016-02-24T14:48:39Z</time>
      </trkpt>
      <trkpt lat="45.29445" lon="0.41075">
        <ele>91</ele>
        <time>2016-02-24T14:48:44Z</time>
      </trkpt>
      <trkpt lat="45.29449" lon="0.41077">
        <ele>93</ele>
        <time>2016-02-24T14:48:48Z</time>
      </trkpt>
      <trkpt lat="45.29454" lon="0.4108">
        <ele>93</ele>
        <time>2016-02-24T14:48:53Z</time>
      </trkpt>
      <trkpt lat="45.29455" lon="0.41084">
        <ele>92</ele>
        <time>2016-02-24T14:48:57Z</time>
      </trkpt>
      <trkpt lat="45.29459" lon="0.41086">
        <ele>93</ele>
        <time>2016-02-24T14:49:01Z</time>
      </trkpt>
      <trkpt lat="45.29463" lon="0.41089">
        <ele>93</ele>
        <time>2016-02-24T14:49:06Z</time>
      </trkpt>
      <trkpt lat="45.29467" lon="0.41092">
        <ele>92</ele>
        <time>2016-02-24T14:49:10Z</time>
      </trkpt>
      <trkpt lat="45.29472" lon="0.41095">
        <ele>92</ele>
        <time>2016-02-24T14:49:15Z</time>
      </trkpt>
      <trkpt lat="45.29476" lon="0.41097">
        <ele>91</ele>
        <time>2016-02-24T14:49:19Z</time>
      </trkpt>
      <trkpt lat="45.2948" lon="0.41099">
        <ele>90</ele>
        <time>2016-02-24T14:49:24Z</time>
      </trkpt>
      <trkpt lat="45.29485" lon="0.41102">
        <ele>90</ele>
        <time>2016-02-24T14:49:28Z</time>
      </trkpt>
      <trkpt lat="45.2949" lon="0.41103">
        <ele>89</ele>
        <time>2016-02-24T14:49:32Z</time>
      </trkpt>
      <trkpt lat="45.29495" lon="0.41102">
        <ele>91</ele>
        <time>2016-02-24T14:49:37Z</time>
      </trkpt>
      <trkpt lat="45.29498" lon="0.41097">
        <ele>92</ele>
        <time>2016-02-24T14:49:43Z</time>
      </trkpt>
      <trkpt lat="45.29499" lon="0.41092">
        <ele>92</ele>
        <time>2016-02-24T14:49:47Z</time>
      </trkpt>
      <trkpt lat="45.29501" lon="0.41087">
        <ele>93</ele>
        <time>2016-02-24T14:49:52Z</time>
      </trkpt>
      <trkpt lat="45.29502" lon="0.41081">
        <ele>94</ele>
        <time>2016-02-24T14:49:57Z</time>
      </trkpt>
      <trkpt lat="45.29505" lon="0.41076">
        <ele>94</ele>
        <time>2016-02-24T14:50:02Z</time>
      </trkpt>
      <trkpt lat="45.29507" lon="0.41071">
        <ele>96</ele>
        <time>2016-02-24T14:50:07Z</time>
      </trkpt>
      <trkpt lat="45.2951" lon="0.41065">
        <ele>97</ele>
        <time>2016-02-24T14:50:12Z</time>
      </trkpt>
      <trkpt lat="45.2951" lon="0.41063">
        <ele>99</ele>
        <time>2016-02-24T14:50:28Z</time>
      </trkpt>
      <trkpt lat="45.2951" lon="0.41063">
        <ele>99</ele>
        <time>2016-02-24T14:50:29Z</time>
      </trkpt>
      <trkpt lat="45.29509" lon="0.41073">
        <ele>100</ele>
        <time>2016-02-24T15:00:21Z</time>
      </trkpt>
      <trkpt lat="45.29509" lon="0.41073">
        <ele>100</ele>
        <time>2016-02-24T15:00:24Z</time>
      </trkpt>
      <trkpt lat="45.29509" lon="0.41069">
        <ele>109</ele>
        <time>2016-02-24T15:00:29Z</time>
      </trkpt>
      <trkpt lat="45.29512" lon="0.41064">
        <ele>98</ele>
        <time>2016-02-24T15:02:00Z</time>
      </trkpt>
      <trkpt lat="45.29508" lon="0.41064">
        <ele>97</ele>
        <time>2016-02-24T15:11:29Z</time>
      </trkpt>
      <trkpt lat="45.29509" lon="0.41064">
        <ele>98</ele>
        <time>2016-02-24T15:17:35Z</time>
      </trkpt>
      <trkpt lat="45.29509" lon="0.41064">
        <ele>98</ele>
        <time>2016-02-24T15:17:36Z</time>
      </trkpt>
    </trkseg>
  </trk>
</gpx>